<?xml version="1.0" encoding="UTF-8" standalone="no" ?>
<gpx xmlns="http://www.topografix.com/GPX/1/1" xmlns:xsi="http://www.w3.org/2001/XMLSchema-instance" xsi:schemaLocation="http://www.topografix.com/GPX/1/1 http://www.topografix.com/GPX/1/1/gpx.xsd" version="1.1" creator="VisuGPX - https://www.visugpx.com">
  <metadata>
    <name>2019-02-12-ski rando MM Grandes Buffes</name>
  </metadata>
  <trk>
    <name><![CDATA[2019-02-12-ski rando MM Grandes Buffes]]></name>
    <trkseg>
      <trkpt lat="45.04932" lon="6.11283">
        <ele>1347.3</ele>
        <time>2019-02-12T07:49:43Z</time>
      </trkpt>
      <trkpt lat="45.04936" lon="6.11271">
        <ele>1348.1</ele>
        <time>2019-02-12T07:50:01Z</time>
      </trkpt>
      <trkpt lat="45.04942" lon="6.11261">
        <ele>1348.4</ele>
        <time>2019-02-12T07:50:15Z</time>
      </trkpt>
      <trkpt lat="45.04948" lon="6.1125">
        <ele>1348.5</ele>
        <time>2019-02-12T07:50:32Z</time>
      </trkpt>
      <trkpt lat="45.04954" lon="6.1124">
        <ele>1348.6</ele>
        <time>2019-02-12T07:50:44Z</time>
      </trkpt>
      <trkpt lat="45.04963" lon="6.11235">
        <ele>1349</ele>
        <time>2019-02-12T07:50:57Z</time>
      </trkpt>
      <trkpt lat="45.04972" lon="6.11231">
        <ele>1349.6</ele>
        <time>2019-02-12T07:51:09Z</time>
      </trkpt>
      <trkpt lat="45.04981" lon="6.11234">
        <ele>1350</ele>
        <time>2019-02-12T07:51:22Z</time>
      </trkpt>
      <trkpt lat="45.04991" lon="6.11233">
        <ele>1349.9</ele>
        <time>2019-02-12T07:51:34Z</time>
      </trkpt>
      <trkpt lat="45.04996" lon="6.11222">
        <ele>1350.2</ele>
        <time>2019-02-12T07:51:46Z</time>
      </trkpt>
      <trkpt lat="45.05" lon="6.1121">
        <ele>1350.3</ele>
        <time>2019-02-12T07:51:57Z</time>
      </trkpt>
      <trkpt lat="45.05002" lon="6.11198">
        <ele>1350.8</ele>
        <time>2019-02-12T07:52:06Z</time>
      </trkpt>
      <trkpt lat="45.05003" lon="6.11184">
        <ele>1351.3</ele>
        <time>2019-02-12T07:52:17Z</time>
      </trkpt>
      <trkpt lat="45.05004" lon="6.11171">
        <ele>1351.7</ele>
        <time>2019-02-12T07:52:27Z</time>
      </trkpt>
      <trkpt lat="45.05006" lon="6.11158">
        <ele>1352.7</ele>
        <time>2019-02-12T07:52:38Z</time>
      </trkpt>
      <trkpt lat="45.05009" lon="6.11145">
        <ele>1354.2</ele>
        <time>2019-02-12T07:52:52Z</time>
      </trkpt>
      <trkpt lat="45.05008" lon="6.11132">
        <ele>1355.5</ele>
        <time>2019-02-12T07:53:04Z</time>
      </trkpt>
      <trkpt lat="45.05008" lon="6.11119">
        <ele>1357.2</ele>
        <time>2019-02-12T07:53:15Z</time>
      </trkpt>
      <trkpt lat="45.05006" lon="6.11105">
        <ele>1359.2</ele>
        <time>2019-02-12T07:53:27Z</time>
      </trkpt>
      <trkpt lat="45.04999" lon="6.11095">
        <ele>1360.9</ele>
        <time>2019-02-12T07:53:38Z</time>
      </trkpt>
      <trkpt lat="45.0499" lon="6.11088">
        <ele>1362.8</ele>
        <time>2019-02-12T07:53:49Z</time>
      </trkpt>
      <trkpt lat="45.04984" lon="6.11077">
        <ele>1364.1</ele>
        <time>2019-02-12T07:54:00Z</time>
      </trkpt>
      <trkpt lat="45.0498" lon="6.11066">
        <ele>1364.9</ele>
        <time>2019-02-12T07:54:10Z</time>
      </trkpt>
      <trkpt lat="45.04974" lon="6.11055">
        <ele>1366.3</ele>
        <time>2019-02-12T07:54:20Z</time>
      </trkpt>
      <trkpt lat="45.04972" lon="6.11042">
        <ele>1367.5</ele>
        <time>2019-02-12T07:54:30Z</time>
      </trkpt>
      <trkpt lat="45.0497" lon="6.11029">
        <ele>1368.3</ele>
        <time>2019-02-12T07:54:42Z</time>
      </trkpt>
      <trkpt lat="45.0497" lon="6.11016">
        <ele>1369.3</ele>
        <time>2019-02-12T07:54:55Z</time>
      </trkpt>
      <trkpt lat="45.04973" lon="6.11003">
        <ele>1371.9</ele>
        <time>2019-02-12T07:57:41Z</time>
      </trkpt>
      <trkpt lat="45.04977" lon="6.10992">
        <ele>1372.2</ele>
        <time>2019-02-12T07:58:33Z</time>
      </trkpt>
      <trkpt lat="45.04982" lon="6.1098">
        <ele>1372.2</ele>
        <time>2019-02-12T07:58:42Z</time>
      </trkpt>
      <trkpt lat="45.04986" lon="6.10967">
        <ele>1372.2</ele>
        <time>2019-02-12T07:58:51Z</time>
      </trkpt>
      <trkpt lat="45.04989" lon="6.10955">
        <ele>1372.8</ele>
        <time>2019-02-12T07:59:02Z</time>
      </trkpt>
      <trkpt lat="45.04996" lon="6.10946">
        <ele>1373.6</ele>
        <time>2019-02-12T07:59:16Z</time>
      </trkpt>
      <trkpt lat="45.05001" lon="6.10934">
        <ele>1375.5</ele>
        <time>2019-02-12T07:59:29Z</time>
      </trkpt>
      <trkpt lat="45.05005" lon="6.10921">
        <ele>1376.2</ele>
        <time>2019-02-12T07:59:37Z</time>
      </trkpt>
      <trkpt lat="45.05008" lon="6.10908">
        <ele>1377</ele>
        <time>2019-02-12T07:59:46Z</time>
      </trkpt>
      <trkpt lat="45.0501" lon="6.10895">
        <ele>1377.9</ele>
        <time>2019-02-12T07:59:55Z</time>
      </trkpt>
      <trkpt lat="45.05014" lon="6.10883">
        <ele>1379.1</ele>
        <time>2019-02-12T08:00:05Z</time>
      </trkpt>
      <trkpt lat="45.05017" lon="6.1087">
        <ele>1380.4</ele>
        <time>2019-02-12T08:00:16Z</time>
      </trkpt>
      <trkpt lat="45.05021" lon="6.10857">
        <ele>1382.1</ele>
        <time>2019-02-12T08:00:27Z</time>
      </trkpt>
      <trkpt lat="45.05027" lon="6.10847">
        <ele>1383.7</ele>
        <time>2019-02-12T08:00:38Z</time>
      </trkpt>
      <trkpt lat="45.05033" lon="6.10837">
        <ele>1385.3</ele>
        <time>2019-02-12T08:00:48Z</time>
      </trkpt>
      <trkpt lat="45.05037" lon="6.10825">
        <ele>1386.4</ele>
        <time>2019-02-12T08:00:57Z</time>
      </trkpt>
      <trkpt lat="45.05041" lon="6.10813">
        <ele>1387.3</ele>
        <time>2019-02-12T08:01:06Z</time>
      </trkpt>
      <trkpt lat="45.05043" lon="6.108">
        <ele>1388.3</ele>
        <time>2019-02-12T08:01:15Z</time>
      </trkpt>
      <trkpt lat="45.05047" lon="6.10788">
        <ele>1390</ele>
        <time>2019-02-12T08:01:24Z</time>
      </trkpt>
      <trkpt lat="45.05051" lon="6.10776">
        <ele>1391.3</ele>
        <time>2019-02-12T08:01:36Z</time>
      </trkpt>
      <trkpt lat="45.05055" lon="6.10765">
        <ele>1392.2</ele>
        <time>2019-02-12T08:01:48Z</time>
      </trkpt>
      <trkpt lat="45.0506" lon="6.10754">
        <ele>1393.8</ele>
        <time>2019-02-12T08:02:01Z</time>
      </trkpt>
      <trkpt lat="45.05066" lon="6.10744">
        <ele>1395</ele>
        <time>2019-02-12T08:02:14Z</time>
      </trkpt>
      <trkpt lat="45.05073" lon="6.10734">
        <ele>1397.7</ele>
        <time>2019-02-12T08:02:30Z</time>
      </trkpt>
      <trkpt lat="45.0508" lon="6.10726">
        <ele>1400</ele>
        <time>2019-02-12T08:02:44Z</time>
      </trkpt>
      <trkpt lat="45.05089" lon="6.10731">
        <ele>1403.6</ele>
        <time>2019-02-12T08:03:04Z</time>
      </trkpt>
      <trkpt lat="45.0509" lon="6.10744">
        <ele>1406.3</ele>
        <time>2019-02-12T08:03:20Z</time>
      </trkpt>
      <trkpt lat="45.05094" lon="6.10755">
        <ele>1408.6</ele>
        <time>2019-02-12T08:03:38Z</time>
      </trkpt>
      <trkpt lat="45.05102" lon="6.10762">
        <ele>1410.8</ele>
        <time>2019-02-12T08:03:53Z</time>
      </trkpt>
      <trkpt lat="45.05112" lon="6.10766">
        <ele>1412.3</ele>
        <time>2019-02-12T08:04:08Z</time>
      </trkpt>
      <trkpt lat="45.05121" lon="6.10766">
        <ele>1414</ele>
        <time>2019-02-12T08:04:22Z</time>
      </trkpt>
      <trkpt lat="45.0513" lon="6.10763">
        <ele>1415.6</ele>
        <time>2019-02-12T08:04:35Z</time>
      </trkpt>
      <trkpt lat="45.05139" lon="6.1076">
        <ele>1417.2</ele>
        <time>2019-02-12T08:04:49Z</time>
      </trkpt>
      <trkpt lat="45.05148" lon="6.10757">
        <ele>1418.6</ele>
        <time>2019-02-12T08:05:01Z</time>
      </trkpt>
      <trkpt lat="45.05157" lon="6.10754">
        <ele>1419.7</ele>
        <time>2019-02-12T08:05:12Z</time>
      </trkpt>
      <trkpt lat="45.05165" lon="6.10746">
        <ele>1421.3</ele>
        <time>2019-02-12T08:05:24Z</time>
      </trkpt>
      <trkpt lat="45.0517" lon="6.10735">
        <ele>1423</ele>
        <time>2019-02-12T08:05:36Z</time>
      </trkpt>
      <trkpt lat="45.05176" lon="6.10725">
        <ele>1424.4</ele>
        <time>2019-02-12T08:05:50Z</time>
      </trkpt>
      <trkpt lat="45.0518" lon="6.10712">
        <ele>1425.2</ele>
        <time>2019-02-12T08:06:01Z</time>
      </trkpt>
      <trkpt lat="45.05185" lon="6.10701">
        <ele>1426.1</ele>
        <time>2019-02-12T08:06:11Z</time>
      </trkpt>
      <trkpt lat="45.05192" lon="6.10693">
        <ele>1427.4</ele>
        <time>2019-02-12T08:06:24Z</time>
      </trkpt>
      <trkpt lat="45.05199" lon="6.10684">
        <ele>1428.6</ele>
        <time>2019-02-12T08:06:35Z</time>
      </trkpt>
      <trkpt lat="45.05207" lon="6.10677">
        <ele>1429.8</ele>
        <time>2019-02-12T08:06:48Z</time>
      </trkpt>
      <trkpt lat="45.05215" lon="6.10669">
        <ele>1431.2</ele>
        <time>2019-02-12T08:07:03Z</time>
      </trkpt>
      <trkpt lat="45.05222" lon="6.10662">
        <ele>1432.6</ele>
        <time>2019-02-12T08:07:16Z</time>
      </trkpt>
      <trkpt lat="45.05231" lon="6.10656">
        <ele>1434.2</ele>
        <time>2019-02-12T08:07:29Z</time>
      </trkpt>
      <trkpt lat="45.05239" lon="6.1065">
        <ele>1436.1</ele>
        <time>2019-02-12T08:07:46Z</time>
      </trkpt>
      <trkpt lat="45.05247" lon="6.10642">
        <ele>1438.4</ele>
        <time>2019-02-12T08:08:00Z</time>
      </trkpt>
      <trkpt lat="45.05255" lon="6.10635">
        <ele>1440</ele>
        <time>2019-02-12T08:08:14Z</time>
      </trkpt>
      <trkpt lat="45.05263" lon="6.10627">
        <ele>1441.6</ele>
        <time>2019-02-12T08:08:26Z</time>
      </trkpt>
      <trkpt lat="45.05272" lon="6.10622">
        <ele>1442.5</ele>
        <time>2019-02-12T08:08:37Z</time>
      </trkpt>
      <trkpt lat="45.05281" lon="6.1062">
        <ele>1443.8</ele>
        <time>2019-02-12T08:08:49Z</time>
      </trkpt>
      <trkpt lat="45.0529" lon="6.10615">
        <ele>1444.9</ele>
        <time>2019-02-12T08:09:01Z</time>
      </trkpt>
      <trkpt lat="45.05298" lon="6.1061">
        <ele>1445.3</ele>
        <time>2019-02-12T08:09:10Z</time>
      </trkpt>
      <trkpt lat="45.05307" lon="6.10604">
        <ele>1445.4</ele>
        <time>2019-02-12T08:09:19Z</time>
      </trkpt>
      <trkpt lat="45.05315" lon="6.10598">
        <ele>1445.3</ele>
        <time>2019-02-12T08:09:30Z</time>
      </trkpt>
      <trkpt lat="45.05323" lon="6.10589">
        <ele>1445.6</ele>
        <time>2019-02-12T08:09:40Z</time>
      </trkpt>
      <trkpt lat="45.05329" lon="6.10579">
        <ele>1445.5</ele>
        <time>2019-02-12T08:09:51Z</time>
      </trkpt>
      <trkpt lat="45.05334" lon="6.10568">
        <ele>1446.4</ele>
        <time>2019-02-12T08:10:15Z</time>
      </trkpt>
      <trkpt lat="45.05336" lon="6.10555">
        <ele>1446.6</ele>
        <time>2019-02-12T08:11:02Z</time>
      </trkpt>
      <trkpt lat="45.05336" lon="6.10568">
        <ele>1446.7</ele>
        <time>2019-02-12T08:12:52Z</time>
      </trkpt>
      <trkpt lat="45.05338" lon="6.10556">
        <ele>1447.1</ele>
        <time>2019-02-12T08:14:45Z</time>
      </trkpt>
      <trkpt lat="45.05335" lon="6.10568">
        <ele>1447</ele>
        <time>2019-02-12T08:15:48Z</time>
      </trkpt>
      <trkpt lat="45.05344" lon="6.10564">
        <ele>1447</ele>
        <time>2019-02-12T08:16:10Z</time>
      </trkpt>
      <trkpt lat="45.05349" lon="6.10553">
        <ele>1448</ele>
        <time>2019-02-12T08:16:28Z</time>
      </trkpt>
      <trkpt lat="45.05353" lon="6.10541">
        <ele>1448.7</ele>
        <time>2019-02-12T08:16:38Z</time>
      </trkpt>
      <trkpt lat="45.05358" lon="6.1053">
        <ele>1449.7</ele>
        <time>2019-02-12T08:16:47Z</time>
      </trkpt>
      <trkpt lat="45.05363" lon="6.10518">
        <ele>1450.6</ele>
        <time>2019-02-12T08:16:56Z</time>
      </trkpt>
      <trkpt lat="45.05369" lon="6.10506">
        <ele>1451.6</ele>
        <time>2019-02-12T08:17:06Z</time>
      </trkpt>
      <trkpt lat="45.05376" lon="6.10497">
        <ele>1453.6</ele>
        <time>2019-02-12T08:17:22Z</time>
      </trkpt>
      <trkpt lat="45.05382" lon="6.10488">
        <ele>1455</ele>
        <time>2019-02-12T08:17:34Z</time>
      </trkpt>
      <trkpt lat="45.05388" lon="6.10477">
        <ele>1455.4</ele>
        <time>2019-02-12T08:17:45Z</time>
      </trkpt>
      <trkpt lat="45.05394" lon="6.10467">
        <ele>1456.6</ele>
        <time>2019-02-12T08:17:57Z</time>
      </trkpt>
      <trkpt lat="45.05398" lon="6.10455">
        <ele>1458.1</ele>
        <time>2019-02-12T08:18:09Z</time>
      </trkpt>
      <trkpt lat="45.05404" lon="6.10443">
        <ele>1459.7</ele>
        <time>2019-02-12T08:18:21Z</time>
      </trkpt>
      <trkpt lat="45.05407" lon="6.10431">
        <ele>1461</ele>
        <time>2019-02-12T08:18:33Z</time>
      </trkpt>
      <trkpt lat="45.0541" lon="6.10419">
        <ele>1462.8</ele>
        <time>2019-02-12T08:18:45Z</time>
      </trkpt>
      <trkpt lat="45.05414" lon="6.10407">
        <ele>1464.3</ele>
        <time>2019-02-12T08:18:57Z</time>
      </trkpt>
      <trkpt lat="45.05419" lon="6.10395">
        <ele>1466.2</ele>
        <time>2019-02-12T08:19:10Z</time>
      </trkpt>
      <trkpt lat="45.05424" lon="6.10385">
        <ele>1468</ele>
        <time>2019-02-12T08:19:24Z</time>
      </trkpt>
      <trkpt lat="45.05431" lon="6.10376">
        <ele>1470.1</ele>
        <time>2019-02-12T08:19:38Z</time>
      </trkpt>
      <trkpt lat="45.0543" lon="6.10389">
        <ele>1472.6</ele>
        <time>2019-02-12T08:19:57Z</time>
      </trkpt>
      <trkpt lat="45.05428" lon="6.10402">
        <ele>1473.5</ele>
        <time>2019-02-12T08:20:10Z</time>
      </trkpt>
      <trkpt lat="45.05427" lon="6.10415">
        <ele>1474.3</ele>
        <time>2019-02-12T08:20:24Z</time>
      </trkpt>
      <trkpt lat="45.05426" lon="6.10428">
        <ele>1475.9</ele>
        <time>2019-02-12T08:20:42Z</time>
      </trkpt>
      <trkpt lat="45.05427" lon="6.10442">
        <ele>1476.3</ele>
        <time>2019-02-12T08:20:52Z</time>
      </trkpt>
      <trkpt lat="45.05428" lon="6.10455">
        <ele>1476.9</ele>
        <time>2019-02-12T08:21:03Z</time>
      </trkpt>
      <trkpt lat="45.05428" lon="6.10468">
        <ele>1477.9</ele>
        <time>2019-02-12T08:21:16Z</time>
      </trkpt>
      <trkpt lat="45.05426" lon="6.10481">
        <ele>1478.8</ele>
        <time>2019-02-12T08:21:27Z</time>
      </trkpt>
      <trkpt lat="45.05424" lon="6.10493">
        <ele>1479.3</ele>
        <time>2019-02-12T08:21:38Z</time>
      </trkpt>
      <trkpt lat="45.05423" lon="6.10507">
        <ele>1480.7</ele>
        <time>2019-02-12T08:21:49Z</time>
      </trkpt>
      <trkpt lat="45.05433" lon="6.10505">
        <ele>1483.7</ele>
        <time>2019-02-12T08:22:35Z</time>
      </trkpt>
      <trkpt lat="45.05441" lon="6.10499">
        <ele>1486.5</ele>
        <time>2019-02-12T08:22:54Z</time>
      </trkpt>
      <trkpt lat="45.05449" lon="6.10492">
        <ele>1489.8</ele>
        <time>2019-02-12T08:23:17Z</time>
      </trkpt>
      <trkpt lat="45.05457" lon="6.10485">
        <ele>1491.6</ele>
        <time>2019-02-12T08:23:32Z</time>
      </trkpt>
      <trkpt lat="45.05464" lon="6.10476">
        <ele>1493.7</ele>
        <time>2019-02-12T08:23:52Z</time>
      </trkpt>
      <trkpt lat="45.05471" lon="6.10468">
        <ele>1496.2</ele>
        <time>2019-02-12T08:24:13Z</time>
      </trkpt>
      <trkpt lat="45.05473" lon="6.10481">
        <ele>1499.5</ele>
        <time>2019-02-12T08:24:38Z</time>
      </trkpt>
      <trkpt lat="45.05473" lon="6.10495">
        <ele>1501.2</ele>
        <time>2019-02-12T08:24:53Z</time>
      </trkpt>
      <trkpt lat="45.05473" lon="6.10508">
        <ele>1503</ele>
        <time>2019-02-12T08:25:08Z</time>
      </trkpt>
      <trkpt lat="45.0547" lon="6.1052">
        <ele>1504.2</ele>
        <time>2019-02-12T08:25:21Z</time>
      </trkpt>
      <trkpt lat="45.05468" lon="6.10533">
        <ele>1506.9</ele>
        <time>2019-02-12T08:25:41Z</time>
      </trkpt>
      <trkpt lat="45.05472" lon="6.10545">
        <ele>1509.9</ele>
        <time>2019-02-12T08:26:00Z</time>
      </trkpt>
      <trkpt lat="45.05472" lon="6.10559">
        <ele>1512.2</ele>
        <time>2019-02-12T08:26:22Z</time>
      </trkpt>
      <trkpt lat="45.05481" lon="6.10559">
        <ele>1514.3</ele>
        <time>2019-02-12T08:26:39Z</time>
      </trkpt>
      <trkpt lat="45.0549" lon="6.10554">
        <ele>1516.5</ele>
        <time>2019-02-12T08:26:54Z</time>
      </trkpt>
      <trkpt lat="45.05489" lon="6.10567">
        <ele>1519.7</ele>
        <time>2019-02-12T08:27:16Z</time>
      </trkpt>
      <trkpt lat="45.05486" lon="6.10579">
        <ele>1522</ele>
        <time>2019-02-12T08:27:39Z</time>
      </trkpt>
      <trkpt lat="45.05487" lon="6.10592">
        <ele>1524.9</ele>
        <time>2019-02-12T08:28:04Z</time>
      </trkpt>
      <trkpt lat="45.05495" lon="6.10587">
        <ele>1527</ele>
        <time>2019-02-12T08:28:25Z</time>
      </trkpt>
      <trkpt lat="45.05503" lon="6.10578">
        <ele>1528.2</ele>
        <time>2019-02-12T08:28:39Z</time>
      </trkpt>
      <trkpt lat="45.05509" lon="6.10569">
        <ele>1528.8</ele>
        <time>2019-02-12T08:28:51Z</time>
      </trkpt>
      <trkpt lat="45.05516" lon="6.10559">
        <ele>1530.5</ele>
        <time>2019-02-12T08:29:02Z</time>
      </trkpt>
      <trkpt lat="45.05521" lon="6.10548">
        <ele>1531.8</ele>
        <time>2019-02-12T08:29:18Z</time>
      </trkpt>
      <trkpt lat="45.05525" lon="6.10536">
        <ele>1533.1</ele>
        <time>2019-02-12T08:29:32Z</time>
      </trkpt>
      <trkpt lat="45.0553" lon="6.10526">
        <ele>1534.9</ele>
        <time>2019-02-12T08:29:47Z</time>
      </trkpt>
      <trkpt lat="45.05537" lon="6.10517">
        <ele>1536.1</ele>
        <time>2019-02-12T08:30:01Z</time>
      </trkpt>
      <trkpt lat="45.05544" lon="6.10509">
        <ele>1538.1</ele>
        <time>2019-02-12T08:30:20Z</time>
      </trkpt>
      <trkpt lat="45.05551" lon="6.10501">
        <ele>1539.3</ele>
        <time>2019-02-12T08:30:32Z</time>
      </trkpt>
      <trkpt lat="45.05559" lon="6.10494">
        <ele>1540.2</ele>
        <time>2019-02-12T08:30:45Z</time>
      </trkpt>
      <trkpt lat="45.05568" lon="6.10501">
        <ele>1544</ele>
        <time>2019-02-12T08:31:19Z</time>
      </trkpt>
      <trkpt lat="45.05577" lon="6.105">
        <ele>1546.3</ele>
        <time>2019-02-12T08:31:36Z</time>
      </trkpt>
      <trkpt lat="45.05582" lon="6.10511">
        <ele>1550.2</ele>
        <time>2019-02-12T08:32:02Z</time>
      </trkpt>
      <trkpt lat="45.0559" lon="6.10519">
        <ele>1553.4</ele>
        <time>2019-02-12T08:32:26Z</time>
      </trkpt>
      <trkpt lat="45.05599" lon="6.10521">
        <ele>1556.9</ele>
        <time>2019-02-12T08:32:52Z</time>
      </trkpt>
      <trkpt lat="45.05608" lon="6.10522">
        <ele>1558.8</ele>
        <time>2019-02-12T08:36:39Z</time>
      </trkpt>
      <trkpt lat="45.05616" lon="6.10516">
        <ele>1561.1</ele>
        <time>2019-02-12T08:36:56Z</time>
      </trkpt>
      <trkpt lat="45.05617" lon="6.10529">
        <ele>1563.8</ele>
        <time>2019-02-12T08:37:15Z</time>
      </trkpt>
      <trkpt lat="45.05622" lon="6.10539">
        <ele>1571.2</ele>
        <time>2019-02-12T08:38:04Z</time>
      </trkpt>
      <trkpt lat="45.05632" lon="6.10538">
        <ele>1573</ele>
        <time>2019-02-12T08:38:22Z</time>
      </trkpt>
      <trkpt lat="45.05641" lon="6.10537">
        <ele>1576</ele>
        <time>2019-02-12T08:38:42Z</time>
      </trkpt>
      <trkpt lat="45.0565" lon="6.10535">
        <ele>1578.7</ele>
        <time>2019-02-12T08:39:00Z</time>
      </trkpt>
      <trkpt lat="45.05657" lon="6.10525">
        <ele>1580.8</ele>
        <time>2019-02-12T08:39:14Z</time>
      </trkpt>
      <trkpt lat="45.05664" lon="6.10518">
        <ele>1583.4</ele>
        <time>2019-02-12T08:39:29Z</time>
      </trkpt>
      <trkpt lat="45.05663" lon="6.10531">
        <ele>1588.1</ele>
        <time>2019-02-12T08:40:01Z</time>
      </trkpt>
      <trkpt lat="45.05664" lon="6.10545">
        <ele>1590.8</ele>
        <time>2019-02-12T08:40:19Z</time>
      </trkpt>
      <trkpt lat="45.05665" lon="6.10558">
        <ele>1593.2</ele>
        <time>2019-02-12T08:40:35Z</time>
      </trkpt>
      <trkpt lat="45.05666" lon="6.10571">
        <ele>1595.7</ele>
        <time>2019-02-12T08:40:51Z</time>
      </trkpt>
      <trkpt lat="45.05664" lon="6.10584">
        <ele>1598.4</ele>
        <time>2019-02-12T08:41:06Z</time>
      </trkpt>
      <trkpt lat="45.05673" lon="6.10578">
        <ele>1600.9</ele>
        <time>2019-02-12T08:41:30Z</time>
      </trkpt>
      <trkpt lat="45.05681" lon="6.10571">
        <ele>1602.1</ele>
        <time>2019-02-12T08:41:41Z</time>
      </trkpt>
      <trkpt lat="45.05689" lon="6.10564">
        <ele>1604.2</ele>
        <time>2019-02-12T08:41:54Z</time>
      </trkpt>
      <trkpt lat="45.05687" lon="6.10577">
        <ele>1606.5</ele>
        <time>2019-02-12T08:42:13Z</time>
      </trkpt>
      <trkpt lat="45.05681" lon="6.10588">
        <ele>1607.9</ele>
        <time>2019-02-12T08:42:25Z</time>
      </trkpt>
      <trkpt lat="45.05676" lon="6.10599">
        <ele>1609.3</ele>
        <time>2019-02-12T08:42:38Z</time>
      </trkpt>
      <trkpt lat="45.05672" lon="6.10611">
        <ele>1610.7</ele>
        <time>2019-02-12T08:42:51Z</time>
      </trkpt>
      <trkpt lat="45.05671" lon="6.10624">
        <ele>1612.8</ele>
        <time>2019-02-12T08:43:05Z</time>
      </trkpt>
      <trkpt lat="45.05671" lon="6.10637">
        <ele>1615.2</ele>
        <time>2019-02-12T08:43:23Z</time>
      </trkpt>
      <trkpt lat="45.05669" lon="6.1065">
        <ele>1618.1</ele>
        <time>2019-02-12T08:43:45Z</time>
      </trkpt>
      <trkpt lat="45.05665" lon="6.10662">
        <ele>1620.7</ele>
        <time>2019-02-12T08:44:05Z</time>
      </trkpt>
      <trkpt lat="45.05664" lon="6.10675">
        <ele>1623.5</ele>
        <time>2019-02-12T08:44:30Z</time>
      </trkpt>
      <trkpt lat="45.05664" lon="6.10688">
        <ele>1626.3</ele>
        <time>2019-02-12T08:44:50Z</time>
      </trkpt>
      <trkpt lat="45.05669" lon="6.10699">
        <ele>1628.6</ele>
        <time>2019-02-12T08:45:06Z</time>
      </trkpt>
      <trkpt lat="45.05678" lon="6.10701">
        <ele>1630.6</ele>
        <time>2019-02-12T08:45:22Z</time>
      </trkpt>
      <trkpt lat="45.05686" lon="6.10709">
        <ele>1633.9</ele>
        <time>2019-02-12T08:45:45Z</time>
      </trkpt>
      <trkpt lat="45.05683" lon="6.10722">
        <ele>1635.8</ele>
        <time>2019-02-12T08:46:02Z</time>
      </trkpt>
      <trkpt lat="45.05683" lon="6.10736">
        <ele>1638.6</ele>
        <time>2019-02-12T08:46:20Z</time>
      </trkpt>
      <trkpt lat="45.05682" lon="6.10749">
        <ele>1640.5</ele>
        <time>2019-02-12T08:46:39Z</time>
      </trkpt>
      <trkpt lat="45.05684" lon="6.10761">
        <ele>1642.2</ele>
        <time>2019-02-12T08:46:54Z</time>
      </trkpt>
      <trkpt lat="45.05691" lon="6.10771">
        <ele>1643.7</ele>
        <time>2019-02-12T08:47:08Z</time>
      </trkpt>
      <trkpt lat="45.05697" lon="6.10781">
        <ele>1645.1</ele>
        <time>2019-02-12T08:47:22Z</time>
      </trkpt>
      <trkpt lat="45.05702" lon="6.10791">
        <ele>1647.5</ele>
        <time>2019-02-12T08:47:40Z</time>
      </trkpt>
      <trkpt lat="45.05711" lon="6.10787">
        <ele>1651.7</ele>
        <time>2019-02-12T08:48:08Z</time>
      </trkpt>
      <trkpt lat="45.05718" lon="6.10778">
        <ele>1654.3</ele>
        <time>2019-02-12T08:48:28Z</time>
      </trkpt>
      <trkpt lat="45.05725" lon="6.10787">
        <ele>1657.5</ele>
        <time>2019-02-12T08:48:54Z</time>
      </trkpt>
      <trkpt lat="45.05727" lon="6.108">
        <ele>1660.7</ele>
        <time>2019-02-12T08:49:11Z</time>
      </trkpt>
      <trkpt lat="45.05732" lon="6.10811">
        <ele>1663.2</ele>
        <time>2019-02-12T08:49:28Z</time>
      </trkpt>
      <trkpt lat="45.05734" lon="6.10824">
        <ele>1664.9</ele>
        <time>2019-02-12T08:49:44Z</time>
      </trkpt>
      <trkpt lat="45.05735" lon="6.10837">
        <ele>1666.8</ele>
        <time>2019-02-12T08:49:57Z</time>
      </trkpt>
      <trkpt lat="45.05737" lon="6.10849">
        <ele>1668</ele>
        <time>2019-02-12T08:50:09Z</time>
      </trkpt>
      <trkpt lat="45.0574" lon="6.10862">
        <ele>1669.1</ele>
        <time>2019-02-12T08:50:22Z</time>
      </trkpt>
      <trkpt lat="45.05739" lon="6.10875">
        <ele>1670.4</ele>
        <time>2019-02-12T08:50:38Z</time>
      </trkpt>
      <trkpt lat="45.05738" lon="6.10888">
        <ele>1672.3</ele>
        <time>2019-02-12T08:50:53Z</time>
      </trkpt>
      <trkpt lat="45.05739" lon="6.10901">
        <ele>1675.4</ele>
        <time>2019-02-12T08:51:12Z</time>
      </trkpt>
      <trkpt lat="45.05739" lon="6.10914">
        <ele>1678</ele>
        <time>2019-02-12T08:51:28Z</time>
      </trkpt>
      <trkpt lat="45.05736" lon="6.10926">
        <ele>1679.9</ele>
        <time>2019-02-12T08:51:45Z</time>
      </trkpt>
      <trkpt lat="45.05731" lon="6.10937">
        <ele>1681.5</ele>
        <time>2019-02-12T08:51:59Z</time>
      </trkpt>
      <trkpt lat="45.05727" lon="6.10949">
        <ele>1683.5</ele>
        <time>2019-02-12T08:52:17Z</time>
      </trkpt>
      <trkpt lat="45.05727" lon="6.10962">
        <ele>1686.3</ele>
        <time>2019-02-12T08:52:37Z</time>
      </trkpt>
      <trkpt lat="45.0573" lon="6.10974">
        <ele>1688</ele>
        <time>2019-02-12T08:52:50Z</time>
      </trkpt>
      <trkpt lat="45.05733" lon="6.10986">
        <ele>1689.3</ele>
        <time>2019-02-12T08:53:03Z</time>
      </trkpt>
      <trkpt lat="45.05741" lon="6.10991">
        <ele>1692.2</ele>
        <time>2019-02-12T08:53:25Z</time>
      </trkpt>
      <trkpt lat="45.05748" lon="6.11">
        <ele>1694.3</ele>
        <time>2019-02-12T08:53:38Z</time>
      </trkpt>
      <trkpt lat="45.05754" lon="6.1101">
        <ele>1696.6</ele>
        <time>2019-02-12T08:53:54Z</time>
      </trkpt>
      <trkpt lat="45.05757" lon="6.11022">
        <ele>1700.4</ele>
        <time>2019-02-12T08:54:17Z</time>
      </trkpt>
      <trkpt lat="45.05763" lon="6.11032">
        <ele>1705.2</ele>
        <time>2019-02-12T08:56:21Z</time>
      </trkpt>
      <trkpt lat="45.05769" lon="6.11041">
        <ele>1704.7</ele>
        <time>2019-02-12T08:59:00Z</time>
      </trkpt>
      <trkpt lat="45.05777" lon="6.11048">
        <ele>1706.5</ele>
        <time>2019-02-12T08:59:25Z</time>
      </trkpt>
      <trkpt lat="45.05785" lon="6.11055">
        <ele>1709.6</ele>
        <time>2019-02-12T08:59:46Z</time>
      </trkpt>
      <trkpt lat="45.05791" lon="6.11065">
        <ele>1711.8</ele>
        <time>2019-02-12T09:00:06Z</time>
      </trkpt>
      <trkpt lat="45.058" lon="6.11064">
        <ele>1715.7</ele>
        <time>2019-02-12T09:00:32Z</time>
      </trkpt>
      <trkpt lat="45.05804" lon="6.11052">
        <ele>1718.2</ele>
        <time>2019-02-12T09:01:01Z</time>
      </trkpt>
      <trkpt lat="45.0581" lon="6.11061">
        <ele>1722.5</ele>
        <time>2019-02-12T09:02:08Z</time>
      </trkpt>
      <trkpt lat="45.05817" lon="6.1107">
        <ele>1723.5</ele>
        <time>2019-02-12T09:02:28Z</time>
      </trkpt>
      <trkpt lat="45.05824" lon="6.11078">
        <ele>1726.1</ele>
        <time>2019-02-12T09:02:54Z</time>
      </trkpt>
      <trkpt lat="45.05833" lon="6.11083">
        <ele>1727.3</ele>
        <time>2019-02-12T09:03:11Z</time>
      </trkpt>
      <trkpt lat="45.05839" lon="6.11092">
        <ele>1729.2</ele>
        <time>2019-02-12T09:03:28Z</time>
      </trkpt>
      <trkpt lat="45.05848" lon="6.11092">
        <ele>1731.5</ele>
        <time>2019-02-12T09:03:47Z</time>
      </trkpt>
      <trkpt lat="45.05853" lon="6.11104">
        <ele>1734.6</ele>
        <time>2019-02-12T09:04:17Z</time>
      </trkpt>
      <trkpt lat="45.05862" lon="6.11108">
        <ele>1738.7</ele>
        <time>2019-02-12T09:04:55Z</time>
      </trkpt>
      <trkpt lat="45.05869" lon="6.11116">
        <ele>1739.9</ele>
        <time>2019-02-12T09:05:16Z</time>
      </trkpt>
      <trkpt lat="45.05871" lon="6.11103">
        <ele>1743.7</ele>
        <time>2019-02-12T09:06:11Z</time>
      </trkpt>
      <trkpt lat="45.05876" lon="6.11092">
        <ele>1747.1</ele>
        <time>2019-02-12T09:06:47Z</time>
      </trkpt>
      <trkpt lat="45.05883" lon="6.11102">
        <ele>1748.5</ele>
        <time>2019-02-12T09:07:18Z</time>
      </trkpt>
      <trkpt lat="45.05881" lon="6.11089">
        <ele>1750.7</ele>
        <time>2019-02-12T09:07:59Z</time>
      </trkpt>
      <trkpt lat="45.05888" lon="6.11098">
        <ele>1754.4</ele>
        <time>2019-02-12T09:09:00Z</time>
      </trkpt>
      <trkpt lat="45.05888" lon="6.11085">
        <ele>1757</ele>
        <time>2019-02-12T09:09:40Z</time>
      </trkpt>
      <trkpt lat="45.05886" lon="6.11072">
        <ele>1759.7</ele>
        <time>2019-02-12T09:10:02Z</time>
      </trkpt>
      <trkpt lat="45.05888" lon="6.11059">
        <ele>1763</ele>
        <time>2019-02-12T09:10:26Z</time>
      </trkpt>
      <trkpt lat="45.05892" lon="6.11048">
        <ele>1766.5</ele>
        <time>2019-02-12T09:10:50Z</time>
      </trkpt>
      <trkpt lat="45.05898" lon="6.11039">
        <ele>1769.1</ele>
        <time>2019-02-12T09:11:12Z</time>
      </trkpt>
      <trkpt lat="45.05907" lon="6.11043">
        <ele>1775.1</ele>
        <time>2019-02-12T09:11:57Z</time>
      </trkpt>
      <trkpt lat="45.05914" lon="6.11051">
        <ele>1779.5</ele>
        <time>2019-02-12T09:12:29Z</time>
      </trkpt>
      <trkpt lat="45.0592" lon="6.11061">
        <ele>1781.7</ele>
        <time>2019-02-12T09:12:53Z</time>
      </trkpt>
      <trkpt lat="45.05927" lon="6.11069">
        <ele>1786.5</ele>
        <time>2019-02-12T09:13:32Z</time>
      </trkpt>
      <trkpt lat="45.05935" lon="6.11076">
        <ele>1789.1</ele>
        <time>2019-02-12T09:13:53Z</time>
      </trkpt>
      <trkpt lat="45.05942" lon="6.11085">
        <ele>1792.7</ele>
        <time>2019-02-12T09:14:17Z</time>
      </trkpt>
      <trkpt lat="45.0595" lon="6.11091">
        <ele>1796.6</ele>
        <time>2019-02-12T09:14:51Z</time>
      </trkpt>
      <trkpt lat="45.05958" lon="6.11099">
        <ele>1798.7</ele>
        <time>2019-02-12T09:15:11Z</time>
      </trkpt>
      <trkpt lat="45.05965" lon="6.11107">
        <ele>1803.2</ele>
        <time>2019-02-12T09:15:48Z</time>
      </trkpt>
      <trkpt lat="45.05967" lon="6.1112">
        <ele>1804.8</ele>
        <time>2019-02-12T09:16:12Z</time>
      </trkpt>
      <trkpt lat="45.05972" lon="6.11131">
        <ele>1807.7</ele>
        <time>2019-02-12T09:16:38Z</time>
      </trkpt>
      <trkpt lat="45.05981" lon="6.11136">
        <ele>1810.6</ele>
        <time>2019-02-12T09:17:02Z</time>
      </trkpt>
      <trkpt lat="45.05989" lon="6.11141">
        <ele>1815</ele>
        <time>2019-02-12T09:17:44Z</time>
      </trkpt>
      <trkpt lat="45.05996" lon="6.11151">
        <ele>1816.8</ele>
        <time>2019-02-12T09:18:05Z</time>
      </trkpt>
      <trkpt lat="45.06003" lon="6.11157">
        <ele>1820.9</ele>
        <time>2019-02-12T09:18:42Z</time>
      </trkpt>
      <trkpt lat="45.06012" lon="6.11164">
        <ele>1823</ele>
        <time>2019-02-12T09:19:08Z</time>
      </trkpt>
      <trkpt lat="45.06018" lon="6.11173">
        <ele>1826.5</ele>
        <time>2019-02-12T09:19:32Z</time>
      </trkpt>
      <trkpt lat="45.06026" lon="6.11179">
        <ele>1829.4</ele>
        <time>2019-02-12T09:19:52Z</time>
      </trkpt>
      <trkpt lat="45.06033" lon="6.11188">
        <ele>1832.9</ele>
        <time>2019-02-12T09:20:16Z</time>
      </trkpt>
      <trkpt lat="45.0604" lon="6.11196">
        <ele>1837</ele>
        <time>2019-02-12T09:20:45Z</time>
      </trkpt>
      <trkpt lat="45.0605" lon="6.11197">
        <ele>1839.6</ele>
        <time>2019-02-12T09:21:13Z</time>
      </trkpt>
      <trkpt lat="45.06059" lon="6.112">
        <ele>1842.4</ele>
        <time>2019-02-12T09:21:37Z</time>
      </trkpt>
      <trkpt lat="45.06068" lon="6.11201">
        <ele>1846.4</ele>
        <time>2019-02-12T09:22:06Z</time>
      </trkpt>
      <trkpt lat="45.06076" lon="6.11205">
        <ele>1850.1</ele>
        <time>2019-02-12T09:22:33Z</time>
      </trkpt>
      <trkpt lat="45.06085" lon="6.11206">
        <ele>1853.8</ele>
        <time>2019-02-12T09:22:58Z</time>
      </trkpt>
      <trkpt lat="45.06094" lon="6.11207">
        <ele>1856.7</ele>
        <time>2019-02-12T09:23:32Z</time>
      </trkpt>
      <trkpt lat="45.06104" lon="6.11207">
        <ele>1860.2</ele>
        <time>2019-02-12T09:23:56Z</time>
      </trkpt>
      <trkpt lat="45.06113" lon="6.11207">
        <ele>1864.7</ele>
        <time>2019-02-12T09:24:23Z</time>
      </trkpt>
      <trkpt lat="45.06122" lon="6.11205">
        <ele>1869.2</ele>
        <time>2019-02-12T09:24:57Z</time>
      </trkpt>
      <trkpt lat="45.06131" lon="6.11201">
        <ele>1872.3</ele>
        <time>2019-02-12T09:25:16Z</time>
      </trkpt>
      <trkpt lat="45.06139" lon="6.11198">
        <ele>1876.8</ele>
        <time>2019-02-12T09:25:44Z</time>
      </trkpt>
      <trkpt lat="45.06148" lon="6.11195">
        <ele>1881.1</ele>
        <time>2019-02-12T09:26:11Z</time>
      </trkpt>
      <trkpt lat="45.06157" lon="6.11195">
        <ele>1883.7</ele>
        <time>2019-02-12T09:26:34Z</time>
      </trkpt>
      <trkpt lat="45.06166" lon="6.11192">
        <ele>1886.8</ele>
        <time>2019-02-12T09:26:59Z</time>
      </trkpt>
      <trkpt lat="45.06175" lon="6.11188">
        <ele>1888.9</ele>
        <time>2019-02-12T09:27:17Z</time>
      </trkpt>
      <trkpt lat="45.06184" lon="6.11184">
        <ele>1891.6</ele>
        <time>2019-02-12T09:27:38Z</time>
      </trkpt>
      <trkpt lat="45.06193" lon="6.1118">
        <ele>1895.1</ele>
        <time>2019-02-12T09:28:02Z</time>
      </trkpt>
      <trkpt lat="45.06202" lon="6.11177">
        <ele>1898.6</ele>
        <time>2019-02-12T09:28:26Z</time>
      </trkpt>
      <trkpt lat="45.06211" lon="6.11173">
        <ele>1901.6</ele>
        <time>2019-02-12T09:28:45Z</time>
      </trkpt>
      <trkpt lat="45.0622" lon="6.11169">
        <ele>1904.6</ele>
        <time>2019-02-12T09:29:05Z</time>
      </trkpt>
      <trkpt lat="45.06228" lon="6.11165">
        <ele>1907.6</ele>
        <time>2019-02-12T09:29:30Z</time>
      </trkpt>
      <trkpt lat="45.06237" lon="6.11161">
        <ele>1909.7</ele>
        <time>2019-02-12T09:29:47Z</time>
      </trkpt>
      <trkpt lat="45.06246" lon="6.11157">
        <ele>1912.3</ele>
        <time>2019-02-12T09:30:05Z</time>
      </trkpt>
      <trkpt lat="45.06255" lon="6.11153">
        <ele>1915.3</ele>
        <time>2019-02-12T09:30:25Z</time>
      </trkpt>
      <trkpt lat="45.06264" lon="6.11152">
        <ele>1917.8</ele>
        <time>2019-02-12T09:30:42Z</time>
      </trkpt>
      <trkpt lat="45.06273" lon="6.11152">
        <ele>1920.4</ele>
        <time>2019-02-12T09:31:00Z</time>
      </trkpt>
      <trkpt lat="45.06282" lon="6.11151">
        <ele>1922.8</ele>
        <time>2019-02-12T09:31:17Z</time>
      </trkpt>
      <trkpt lat="45.06292" lon="6.1115">
        <ele>1925.3</ele>
        <time>2019-02-12T09:31:34Z</time>
      </trkpt>
      <trkpt lat="45.06301" lon="6.11148">
        <ele>1928.1</ele>
        <time>2019-02-12T09:31:53Z</time>
      </trkpt>
      <trkpt lat="45.06309" lon="6.11142">
        <ele>1933.9</ele>
        <time>2019-02-12T09:33:38Z</time>
      </trkpt>
      <trkpt lat="45.06301" lon="6.11148">
        <ele>1933.5</ele>
        <time>2019-02-12T09:37:00Z</time>
      </trkpt>
      <trkpt lat="45.0631" lon="6.11148">
        <ele>1934.5</ele>
        <time>2019-02-12T09:38:31Z</time>
      </trkpt>
      <trkpt lat="45.0632" lon="6.11149">
        <ele>1934.8</ele>
        <time>2019-02-12T09:38:47Z</time>
      </trkpt>
      <trkpt lat="45.06329" lon="6.11146">
        <ele>1935.5</ele>
        <time>2019-02-12T09:39:02Z</time>
      </trkpt>
      <trkpt lat="45.06338" lon="6.11147">
        <ele>1936.9</ele>
        <time>2019-02-12T09:39:18Z</time>
      </trkpt>
      <trkpt lat="45.06347" lon="6.11148">
        <ele>1939.6</ele>
        <time>2019-02-12T09:39:39Z</time>
      </trkpt>
      <trkpt lat="45.06356" lon="6.11146">
        <ele>1940.7</ele>
        <time>2019-02-12T09:39:52Z</time>
      </trkpt>
      <trkpt lat="45.06365" lon="6.11146">
        <ele>1943</ele>
        <time>2019-02-12T09:40:09Z</time>
      </trkpt>
      <trkpt lat="45.06375" lon="6.11144">
        <ele>1944.8</ele>
        <time>2019-02-12T09:40:23Z</time>
      </trkpt>
      <trkpt lat="45.06384" lon="6.11143">
        <ele>1946.5</ele>
        <time>2019-02-12T09:40:39Z</time>
      </trkpt>
      <trkpt lat="45.06393" lon="6.1114">
        <ele>1948.7</ele>
        <time>2019-02-12T09:40:55Z</time>
      </trkpt>
      <trkpt lat="45.06402" lon="6.11137">
        <ele>1951.4</ele>
        <time>2019-02-12T09:41:10Z</time>
      </trkpt>
      <trkpt lat="45.06411" lon="6.11134">
        <ele>1953.5</ele>
        <time>2019-02-12T09:41:25Z</time>
      </trkpt>
      <trkpt lat="45.06419" lon="6.1113">
        <ele>1956.3</ele>
        <time>2019-02-12T09:41:44Z</time>
      </trkpt>
      <trkpt lat="45.06428" lon="6.11125">
        <ele>1958</ele>
        <time>2019-02-12T09:42:00Z</time>
      </trkpt>
      <trkpt lat="45.06436" lon="6.11121">
        <ele>1960</ele>
        <time>2019-02-12T09:42:15Z</time>
      </trkpt>
      <trkpt lat="45.06445" lon="6.11117">
        <ele>1962.2</ele>
        <time>2019-02-12T09:42:29Z</time>
      </trkpt>
      <trkpt lat="45.06454" lon="6.11112">
        <ele>1964.1</ele>
        <time>2019-02-12T09:42:44Z</time>
      </trkpt>
      <trkpt lat="45.06462" lon="6.11108">
        <ele>1966.4</ele>
        <time>2019-02-12T09:42:57Z</time>
      </trkpt>
      <trkpt lat="45.06471" lon="6.11103">
        <ele>1967.9</ele>
        <time>2019-02-12T09:43:11Z</time>
      </trkpt>
      <trkpt lat="45.06476" lon="6.11114">
        <ele>1970.9</ele>
        <time>2019-02-12T09:43:37Z</time>
      </trkpt>
      <trkpt lat="45.06478" lon="6.11127">
        <ele>1973.4</ele>
        <time>2019-02-12T09:43:57Z</time>
      </trkpt>
      <trkpt lat="45.0648" lon="6.1114">
        <ele>1975.8</ele>
        <time>2019-02-12T09:44:15Z</time>
      </trkpt>
      <trkpt lat="45.06482" lon="6.11153">
        <ele>1978.4</ele>
        <time>2019-02-12T09:44:32Z</time>
      </trkpt>
      <trkpt lat="45.06485" lon="6.11165">
        <ele>1981.9</ele>
        <time>2019-02-12T09:44:52Z</time>
      </trkpt>
      <trkpt lat="45.0649" lon="6.11176">
        <ele>1984.7</ele>
        <time>2019-02-12T09:45:11Z</time>
      </trkpt>
      <trkpt lat="45.06495" lon="6.11188">
        <ele>1986.5</ele>
        <time>2019-02-12T09:45:28Z</time>
      </trkpt>
      <trkpt lat="45.06501" lon="6.11197">
        <ele>1988.8</ele>
        <time>2019-02-12T09:45:44Z</time>
      </trkpt>
      <trkpt lat="45.06506" lon="6.11208">
        <ele>1990.4</ele>
        <time>2019-02-12T09:45:58Z</time>
      </trkpt>
      <trkpt lat="45.0651" lon="6.11219">
        <ele>1991.9</ele>
        <time>2019-02-12T09:46:11Z</time>
      </trkpt>
      <trkpt lat="45.06514" lon="6.11231">
        <ele>1993.6</ele>
        <time>2019-02-12T09:46:26Z</time>
      </trkpt>
      <trkpt lat="45.06519" lon="6.11243">
        <ele>1995.4</ele>
        <time>2019-02-12T09:46:40Z</time>
      </trkpt>
      <trkpt lat="45.06522" lon="6.11254">
        <ele>1997.3</ele>
        <time>2019-02-12T09:46:55Z</time>
      </trkpt>
      <trkpt lat="45.06526" lon="6.11266">
        <ele>1998.6</ele>
        <time>2019-02-12T09:47:09Z</time>
      </trkpt>
      <trkpt lat="45.06531" lon="6.11277">
        <ele>1999.8</ele>
        <time>2019-02-12T09:47:25Z</time>
      </trkpt>
      <trkpt lat="45.06536" lon="6.11289">
        <ele>2001.9</ele>
        <time>2019-02-12T09:47:41Z</time>
      </trkpt>
      <trkpt lat="45.06541" lon="6.113">
        <ele>2004.1</ele>
        <time>2019-02-12T09:47:58Z</time>
      </trkpt>
      <trkpt lat="45.06547" lon="6.1131">
        <ele>2006.1</ele>
        <time>2019-02-12T09:48:17Z</time>
      </trkpt>
      <trkpt lat="45.06554" lon="6.11319">
        <ele>2008.6</ele>
        <time>2019-02-12T09:48:36Z</time>
      </trkpt>
      <trkpt lat="45.06559" lon="6.1133">
        <ele>2011.7</ele>
        <time>2019-02-12T09:48:56Z</time>
      </trkpt>
      <trkpt lat="45.06565" lon="6.11341">
        <ele>2015.6</ele>
        <time>2019-02-12T09:49:18Z</time>
      </trkpt>
      <trkpt lat="45.06571" lon="6.1135">
        <ele>2018.6</ele>
        <time>2019-02-12T09:49:39Z</time>
      </trkpt>
      <trkpt lat="45.06577" lon="6.1136">
        <ele>2021.6</ele>
        <time>2019-02-12T09:49:59Z</time>
      </trkpt>
      <trkpt lat="45.06584" lon="6.11369">
        <ele>2023.7</ele>
        <time>2019-02-12T09:50:18Z</time>
      </trkpt>
      <trkpt lat="45.06592" lon="6.11375">
        <ele>2027</ele>
        <time>2019-02-12T09:50:34Z</time>
      </trkpt>
      <trkpt lat="45.066" lon="6.11381">
        <ele>2029.8</ele>
        <time>2019-02-12T09:50:51Z</time>
      </trkpt>
      <trkpt lat="45.06609" lon="6.11386">
        <ele>2033.3</ele>
        <time>2019-02-12T09:51:10Z</time>
      </trkpt>
      <trkpt lat="45.06616" lon="6.11393">
        <ele>2036.4</ele>
        <time>2019-02-12T09:51:30Z</time>
      </trkpt>
      <trkpt lat="45.06624" lon="6.114">
        <ele>2039.3</ele>
        <time>2019-02-12T09:51:50Z</time>
      </trkpt>
      <trkpt lat="45.06632" lon="6.11408">
        <ele>2041.4</ele>
        <time>2019-02-12T09:52:09Z</time>
      </trkpt>
      <trkpt lat="45.06638" lon="6.11418">
        <ele>2044.4</ele>
        <time>2019-02-12T09:52:26Z</time>
      </trkpt>
      <trkpt lat="45.06644" lon="6.11427">
        <ele>2046.2</ele>
        <time>2019-02-12T09:52:42Z</time>
      </trkpt>
      <trkpt lat="45.06651" lon="6.11436">
        <ele>2047.4</ele>
        <time>2019-02-12T09:52:56Z</time>
      </trkpt>
      <trkpt lat="45.06658" lon="6.11445">
        <ele>2048.9</ele>
        <time>2019-02-12T09:53:10Z</time>
      </trkpt>
      <trkpt lat="45.06665" lon="6.11453">
        <ele>2051.2</ele>
        <time>2019-02-12T09:53:27Z</time>
      </trkpt>
      <trkpt lat="45.06672" lon="6.11463">
        <ele>2054</ele>
        <time>2019-02-12T09:53:45Z</time>
      </trkpt>
      <trkpt lat="45.0668" lon="6.11469">
        <ele>2056.1</ele>
        <time>2019-02-12T09:54:07Z</time>
      </trkpt>
      <trkpt lat="45.06687" lon="6.11478">
        <ele>2058.7</ele>
        <time>2019-02-12T09:54:25Z</time>
      </trkpt>
      <trkpt lat="45.06696" lon="6.11475">
        <ele>2061.6</ele>
        <time>2019-02-12T09:55:01Z</time>
      </trkpt>
      <trkpt lat="45.06704" lon="6.11467">
        <ele>2065</ele>
        <time>2019-02-12T09:55:25Z</time>
      </trkpt>
      <trkpt lat="45.06713" lon="6.11463">
        <ele>2069.4</ele>
        <time>2019-02-12T09:55:51Z</time>
      </trkpt>
      <trkpt lat="45.06721" lon="6.11469">
        <ele>2072.6</ele>
        <time>2019-02-12T09:56:10Z</time>
      </trkpt>
      <trkpt lat="45.0673" lon="6.11472">
        <ele>2075</ele>
        <time>2019-02-12T09:56:32Z</time>
      </trkpt>
      <trkpt lat="45.06738" lon="6.11478">
        <ele>2077.7</ele>
        <time>2019-02-12T09:56:50Z</time>
      </trkpt>
      <trkpt lat="45.06746" lon="6.11486">
        <ele>2080.3</ele>
        <time>2019-02-12T09:57:07Z</time>
      </trkpt>
      <trkpt lat="45.06754" lon="6.11493">
        <ele>2082.3</ele>
        <time>2019-02-12T09:57:24Z</time>
      </trkpt>
      <trkpt lat="45.06762" lon="6.11497">
        <ele>2084.1</ele>
        <time>2019-02-12T09:57:43Z</time>
      </trkpt>
      <trkpt lat="45.06771" lon="6.11491">
        <ele>2088.5</ele>
        <time>2019-02-12T09:58:05Z</time>
      </trkpt>
      <trkpt lat="45.06779" lon="6.11486">
        <ele>2091.8</ele>
        <time>2019-02-12T09:58:25Z</time>
      </trkpt>
      <trkpt lat="45.06788" lon="6.11483">
        <ele>2094.3</ele>
        <time>2019-02-12T09:58:43Z</time>
      </trkpt>
      <trkpt lat="45.06797" lon="6.11478">
        <ele>2095.9</ele>
        <time>2019-02-12T09:59:02Z</time>
      </trkpt>
      <trkpt lat="45.06806" lon="6.11479">
        <ele>2098.2</ele>
        <time>2019-02-12T09:59:21Z</time>
      </trkpt>
      <trkpt lat="45.06815" lon="6.11482">
        <ele>2100.5</ele>
        <time>2019-02-12T09:59:39Z</time>
      </trkpt>
      <trkpt lat="45.06824" lon="6.11485">
        <ele>2102.3</ele>
        <time>2019-02-12T09:59:58Z</time>
      </trkpt>
      <trkpt lat="45.06833" lon="6.11485">
        <ele>2104.2</ele>
        <time>2019-02-12T10:00:15Z</time>
      </trkpt>
      <trkpt lat="45.06842" lon="6.11481">
        <ele>2106.5</ele>
        <time>2019-02-12T10:00:34Z</time>
      </trkpt>
      <trkpt lat="45.06849" lon="6.11474">
        <ele>2110.6</ele>
        <time>2019-02-12T10:00:59Z</time>
      </trkpt>
      <trkpt lat="45.06854" lon="6.11462">
        <ele>2114.9</ele>
        <time>2019-02-12T10:01:21Z</time>
      </trkpt>
      <trkpt lat="45.06859" lon="6.11452">
        <ele>2117.5</ele>
        <time>2019-02-12T10:01:42Z</time>
      </trkpt>
      <trkpt lat="45.06864" lon="6.11441">
        <ele>2119.7</ele>
        <time>2019-02-12T10:02:02Z</time>
      </trkpt>
      <trkpt lat="45.0687" lon="6.11431">
        <ele>2122.3</ele>
        <time>2019-02-12T10:02:24Z</time>
      </trkpt>
      <trkpt lat="45.06877" lon="6.11422">
        <ele>2125.4</ele>
        <time>2019-02-12T10:02:48Z</time>
      </trkpt>
      <trkpt lat="45.06885" lon="6.11417">
        <ele>2128.1</ele>
        <time>2019-02-12T10:03:13Z</time>
      </trkpt>
      <trkpt lat="45.06894" lon="6.11417">
        <ele>2131.4</ele>
        <time>2019-02-12T10:03:33Z</time>
      </trkpt>
      <trkpt lat="45.06903" lon="6.1142">
        <ele>2134.5</ele>
        <time>2019-02-12T10:03:51Z</time>
      </trkpt>
      <trkpt lat="45.06913" lon="6.11422">
        <ele>2137.2</ele>
        <time>2019-02-12T10:04:10Z</time>
      </trkpt>
      <trkpt lat="45.06922" lon="6.11424">
        <ele>2138.9</ele>
        <time>2019-02-12T10:04:26Z</time>
      </trkpt>
      <trkpt lat="45.06931" lon="6.11426">
        <ele>2140.7</ele>
        <time>2019-02-12T10:04:42Z</time>
      </trkpt>
      <trkpt lat="45.0694" lon="6.11429">
        <ele>2141.7</ele>
        <time>2019-02-12T10:04:58Z</time>
      </trkpt>
      <trkpt lat="45.06949" lon="6.11433">
        <ele>2143.1</ele>
        <time>2019-02-12T10:05:13Z</time>
      </trkpt>
      <trkpt lat="45.06958" lon="6.11438">
        <ele>2145.1</ele>
        <time>2019-02-12T10:05:31Z</time>
      </trkpt>
      <trkpt lat="45.06967" lon="6.11442">
        <ele>2147.5</ele>
        <time>2019-02-12T10:05:50Z</time>
      </trkpt>
      <trkpt lat="45.06976" lon="6.11441">
        <ele>2149.7</ele>
        <time>2019-02-12T10:06:10Z</time>
      </trkpt>
      <trkpt lat="45.06985" lon="6.11443">
        <ele>2152.7</ele>
        <time>2019-02-12T10:06:31Z</time>
      </trkpt>
      <trkpt lat="45.06994" lon="6.11445">
        <ele>2155</ele>
        <time>2019-02-12T10:06:50Z</time>
      </trkpt>
      <trkpt lat="45.07003" lon="6.11447">
        <ele>2156.6</ele>
        <time>2019-02-12T10:07:07Z</time>
      </trkpt>
      <trkpt lat="45.07013" lon="6.11447">
        <ele>2159.2</ele>
        <time>2019-02-12T10:07:26Z</time>
      </trkpt>
      <trkpt lat="45.07022" lon="6.1145">
        <ele>2160.9</ele>
        <time>2019-02-12T10:07:44Z</time>
      </trkpt>
      <trkpt lat="45.0703" lon="6.11453">
        <ele>2164.5</ele>
        <time>2019-02-12T10:08:06Z</time>
      </trkpt>
      <trkpt lat="45.07039" lon="6.11457">
        <ele>2167</ele>
        <time>2019-02-12T10:08:26Z</time>
      </trkpt>
      <trkpt lat="45.07049" lon="6.11459">
        <ele>2169.7</ele>
        <time>2019-02-12T10:08:48Z</time>
      </trkpt>
      <trkpt lat="45.07058" lon="6.1146">
        <ele>2173</ele>
        <time>2019-02-12T10:09:08Z</time>
      </trkpt>
      <trkpt lat="45.07067" lon="6.11461">
        <ele>2175.5</ele>
        <time>2019-02-12T10:09:24Z</time>
      </trkpt>
      <trkpt lat="45.07076" lon="6.1146">
        <ele>2178.2</ele>
        <time>2019-02-12T10:09:42Z</time>
      </trkpt>
      <trkpt lat="45.07085" lon="6.11459">
        <ele>2180.1</ele>
        <time>2019-02-12T10:10:01Z</time>
      </trkpt>
      <trkpt lat="45.07094" lon="6.11456">
        <ele>2181.4</ele>
        <time>2019-02-12T10:10:16Z</time>
      </trkpt>
      <trkpt lat="45.07104" lon="6.11452">
        <ele>2182.7</ele>
        <time>2019-02-12T10:10:30Z</time>
      </trkpt>
      <trkpt lat="45.07113" lon="6.1145">
        <ele>2183.8</ele>
        <time>2019-02-12T10:10:44Z</time>
      </trkpt>
      <trkpt lat="45.07122" lon="6.11444">
        <ele>2184.9</ele>
        <time>2019-02-12T10:11:04Z</time>
      </trkpt>
      <trkpt lat="45.07131" lon="6.11438">
        <ele>2185.1</ele>
        <time>2019-02-12T10:11:15Z</time>
      </trkpt>
      <trkpt lat="45.07138" lon="6.11429">
        <ele>2185.2</ele>
        <time>2019-02-12T10:11:24Z</time>
      </trkpt>
      <trkpt lat="45.07145" lon="6.11419">
        <ele>2185.2</ele>
        <time>2019-02-12T10:11:33Z</time>
      </trkpt>
      <trkpt lat="45.07153" lon="6.11411">
        <ele>2185</ele>
        <time>2019-02-12T10:11:41Z</time>
      </trkpt>
      <trkpt lat="45.07162" lon="6.11408">
        <ele>2184.8</ele>
        <time>2019-02-12T10:11:50Z</time>
      </trkpt>
      <trkpt lat="45.07171" lon="6.11412">
        <ele>2185</ele>
        <time>2019-02-12T10:12:02Z</time>
      </trkpt>
      <trkpt lat="45.07179" lon="6.11419">
        <ele>2185.6</ele>
        <time>2019-02-12T10:12:12Z</time>
      </trkpt>
      <trkpt lat="45.07188" lon="6.11418">
        <ele>2184.8</ele>
        <time>2019-02-12T10:13:05Z</time>
      </trkpt>
      <trkpt lat="45.07198" lon="6.11421">
        <ele>2184.7</ele>
        <time>2019-02-12T10:13:21Z</time>
      </trkpt>
      <trkpt lat="45.07207" lon="6.11425">
        <ele>2184.8</ele>
        <time>2019-02-12T10:13:32Z</time>
      </trkpt>
      <trkpt lat="45.07215" lon="6.1143">
        <ele>2184.9</ele>
        <time>2019-02-12T10:13:43Z</time>
      </trkpt>
      <trkpt lat="45.07224" lon="6.11435">
        <ele>2185.9</ele>
        <time>2019-02-12T10:13:55Z</time>
      </trkpt>
      <trkpt lat="45.07233" lon="6.11441">
        <ele>2187</ele>
        <time>2019-02-12T10:14:07Z</time>
      </trkpt>
      <trkpt lat="45.07242" lon="6.11444">
        <ele>2187.9</ele>
        <time>2019-02-12T10:14:18Z</time>
      </trkpt>
      <trkpt lat="45.07247" lon="6.11454">
        <ele>2188.5</ele>
        <time>2019-02-12T10:14:49Z</time>
      </trkpt>
      <trkpt lat="45.07256" lon="6.1145">
        <ele>2188.1</ele>
        <time>2019-02-12T10:15:13Z</time>
      </trkpt>
      <trkpt lat="45.07266" lon="6.11448">
        <ele>2187.4</ele>
        <time>2019-02-12T10:15:23Z</time>
      </trkpt>
      <trkpt lat="45.07274" lon="6.11441">
        <ele>2187.4</ele>
        <time>2019-02-12T10:15:33Z</time>
      </trkpt>
      <trkpt lat="45.07263" lon="6.11443">
        <ele>2182.1</ele>
        <time>2019-02-12T10:44:45Z</time>
      </trkpt>
      <trkpt lat="45.07254" lon="6.11444">
        <ele>2182.9</ele>
        <time>2019-02-12T10:44:59Z</time>
      </trkpt>
      <trkpt lat="45.07246" lon="6.11451">
        <ele>2183.3</ele>
        <time>2019-02-12T10:45:07Z</time>
      </trkpt>
      <trkpt lat="45.07238" lon="6.1146">
        <ele>2183.1</ele>
        <time>2019-02-12T10:45:20Z</time>
      </trkpt>
      <trkpt lat="45.07229" lon="6.11463">
        <ele>2183.2</ele>
        <time>2019-02-12T10:45:30Z</time>
      </trkpt>
      <trkpt lat="45.0722" lon="6.11463">
        <ele>2183.6</ele>
        <time>2019-02-12T10:45:42Z</time>
      </trkpt>
      <trkpt lat="45.07211" lon="6.11462">
        <ele>2184.2</ele>
        <time>2019-02-12T10:46:00Z</time>
      </trkpt>
      <trkpt lat="45.07201" lon="6.11464">
        <ele>2184.2</ele>
        <time>2019-02-12T10:46:13Z</time>
      </trkpt>
      <trkpt lat="45.07192" lon="6.11469">
        <ele>2183.2</ele>
        <time>2019-02-12T10:46:43Z</time>
      </trkpt>
      <trkpt lat="45.07183" lon="6.11472">
        <ele>2182.8</ele>
        <time>2019-02-12T10:46:48Z</time>
      </trkpt>
      <trkpt lat="45.07171" lon="6.11475">
        <ele>2182.5</ele>
        <time>2019-02-12T10:46:52Z</time>
      </trkpt>
      <trkpt lat="45.07159" lon="6.11478">
        <ele>2182</ele>
        <time>2019-02-12T10:46:55Z</time>
      </trkpt>
      <trkpt lat="45.07149" lon="6.11484">
        <ele>2181.4</ele>
        <time>2019-02-12T10:46:58Z</time>
      </trkpt>
      <trkpt lat="45.0714" lon="6.11492">
        <ele>2180.5</ele>
        <time>2019-02-12T10:47:03Z</time>
      </trkpt>
      <trkpt lat="45.07132" lon="6.11498">
        <ele>2180</ele>
        <time>2019-02-12T10:47:07Z</time>
      </trkpt>
      <trkpt lat="45.07122" lon="6.11505">
        <ele>2179.4</ele>
        <time>2019-02-12T10:47:13Z</time>
      </trkpt>
      <trkpt lat="45.07113" lon="6.11508">
        <ele>2178.2</ele>
        <time>2019-02-12T10:47:19Z</time>
      </trkpt>
      <trkpt lat="45.07104" lon="6.11509">
        <ele>2177.3</ele>
        <time>2019-02-12T10:47:24Z</time>
      </trkpt>
      <trkpt lat="45.07093" lon="6.1151">
        <ele>2176.4</ele>
        <time>2019-02-12T10:47:29Z</time>
      </trkpt>
      <trkpt lat="45.07083" lon="6.11506">
        <ele>2175.4</ele>
        <time>2019-02-12T10:47:34Z</time>
      </trkpt>
      <trkpt lat="45.07075" lon="6.11496">
        <ele>2172.1</ele>
        <time>2019-02-12T10:48:29Z</time>
      </trkpt>
      <trkpt lat="45.07066" lon="6.11486">
        <ele>2171.8</ele>
        <time>2019-02-12T10:48:33Z</time>
      </trkpt>
      <trkpt lat="45.07056" lon="6.11476">
        <ele>2171.1</ele>
        <time>2019-02-12T10:48:36Z</time>
      </trkpt>
      <trkpt lat="45.07044" lon="6.1147">
        <ele>2170.5</ele>
        <time>2019-02-12T10:48:38Z</time>
      </trkpt>
      <trkpt lat="45.07034" lon="6.11467">
        <ele>2169.5</ele>
        <time>2019-02-12T10:48:40Z</time>
      </trkpt>
      <trkpt lat="45.07023" lon="6.11465">
        <ele>2168.2</ele>
        <time>2019-02-12T10:48:42Z</time>
      </trkpt>
      <trkpt lat="45.07011" lon="6.11463">
        <ele>2166.9</ele>
        <time>2019-02-12T10:48:44Z</time>
      </trkpt>
      <trkpt lat="45.07" lon="6.11457">
        <ele>2165</ele>
        <time>2019-02-12T10:48:46Z</time>
      </trkpt>
      <trkpt lat="45.0699" lon="6.11454">
        <ele>2163.2</ele>
        <time>2019-02-12T10:48:48Z</time>
      </trkpt>
      <trkpt lat="45.0698" lon="6.11457">
        <ele>2161.6</ele>
        <time>2019-02-12T10:48:50Z</time>
      </trkpt>
      <trkpt lat="45.06971" lon="6.11457">
        <ele>2159.9</ele>
        <time>2019-02-12T10:48:52Z</time>
      </trkpt>
      <trkpt lat="45.06963" lon="6.11451">
        <ele>2157.9</ele>
        <time>2019-02-12T10:48:54Z</time>
      </trkpt>
      <trkpt lat="45.06951" lon="6.11448">
        <ele>2150.4</ele>
        <time>2019-02-12T10:49:04Z</time>
      </trkpt>
      <trkpt lat="45.06941" lon="6.11455">
        <ele>2148.6</ele>
        <time>2019-02-12T10:49:07Z</time>
      </trkpt>
      <trkpt lat="45.0693" lon="6.11457">
        <ele>2147</ele>
        <time>2019-02-12T10:49:09Z</time>
      </trkpt>
      <trkpt lat="45.06919" lon="6.11462">
        <ele>2145.4</ele>
        <time>2019-02-12T10:49:11Z</time>
      </trkpt>
      <trkpt lat="45.06907" lon="6.11459">
        <ele>2143.4</ele>
        <time>2019-02-12T10:49:13Z</time>
      </trkpt>
      <trkpt lat="45.06897" lon="6.11453">
        <ele>2141.5</ele>
        <time>2019-02-12T10:49:15Z</time>
      </trkpt>
      <trkpt lat="45.06888" lon="6.11446">
        <ele>2138.7</ele>
        <time>2019-02-12T10:49:18Z</time>
      </trkpt>
      <trkpt lat="45.0688" lon="6.11442">
        <ele>2128.9</ele>
        <time>2019-02-12T10:49:35Z</time>
      </trkpt>
      <trkpt lat="45.06867" lon="6.11443">
        <ele>2127.7</ele>
        <time>2019-02-12T10:49:39Z</time>
      </trkpt>
      <trkpt lat="45.06861" lon="6.11433">
        <ele>2127</ele>
        <time>2019-02-12T10:49:41Z</time>
      </trkpt>
      <trkpt lat="45.06852" lon="6.11426">
        <ele>2125.7</ele>
        <time>2019-02-12T10:49:43Z</time>
      </trkpt>
      <trkpt lat="45.06841" lon="6.11422">
        <ele>2124.3</ele>
        <time>2019-02-12T10:49:45Z</time>
      </trkpt>
      <trkpt lat="45.06829" lon="6.11416">
        <ele>2122.5</ele>
        <time>2019-02-12T10:49:47Z</time>
      </trkpt>
      <trkpt lat="45.06816" lon="6.11411">
        <ele>2120.6</ele>
        <time>2019-02-12T10:49:49Z</time>
      </trkpt>
      <trkpt lat="45.06804" lon="6.11405">
        <ele>2118.4</ele>
        <time>2019-02-12T10:49:51Z</time>
      </trkpt>
      <trkpt lat="45.06789" lon="6.11403">
        <ele>2115.9</ele>
        <time>2019-02-12T10:49:53Z</time>
      </trkpt>
      <trkpt lat="45.06781" lon="6.11391">
        <ele>2113.2</ele>
        <time>2019-02-12T10:49:55Z</time>
      </trkpt>
      <trkpt lat="45.0677" lon="6.11394">
        <ele>2109.4</ele>
        <time>2019-02-12T10:49:58Z</time>
      </trkpt>
      <trkpt lat="45.06765" lon="6.11411">
        <ele>2106.1</ele>
        <time>2019-02-12T10:50:01Z</time>
      </trkpt>
      <trkpt lat="45.06754" lon="6.11419">
        <ele>2102.7</ele>
        <time>2019-02-12T10:50:04Z</time>
      </trkpt>
      <trkpt lat="45.06743" lon="6.11415">
        <ele>2100</ele>
        <time>2019-02-12T10:50:06Z</time>
      </trkpt>
      <trkpt lat="45.06733" lon="6.1142">
        <ele>2097.5</ele>
        <time>2019-02-12T10:50:08Z</time>
      </trkpt>
      <trkpt lat="45.06724" lon="6.11423">
        <ele>2090.5</ele>
        <time>2019-02-12T10:50:14Z</time>
      </trkpt>
      <trkpt lat="45.06722" lon="6.1141">
        <ele>2080.7</ele>
        <time>2019-02-12T10:50:25Z</time>
      </trkpt>
      <trkpt lat="45.06722" lon="6.11391">
        <ele>2078.3</ele>
        <time>2019-02-12T10:50:29Z</time>
      </trkpt>
      <trkpt lat="45.06718" lon="6.11379">
        <ele>2074.3</ele>
        <time>2019-02-12T10:50:36Z</time>
      </trkpt>
      <trkpt lat="45.06707" lon="6.11378">
        <ele>2072.8</ele>
        <time>2019-02-12T10:50:39Z</time>
      </trkpt>
      <trkpt lat="45.06697" lon="6.11376">
        <ele>2071.7</ele>
        <time>2019-02-12T10:50:41Z</time>
      </trkpt>
      <trkpt lat="45.06687" lon="6.11373">
        <ele>2070.4</ele>
        <time>2019-02-12T10:50:43Z</time>
      </trkpt>
      <trkpt lat="45.06676" lon="6.11371">
        <ele>2069</ele>
        <time>2019-02-12T10:50:45Z</time>
      </trkpt>
      <trkpt lat="45.06666" lon="6.11372">
        <ele>2067.3</ele>
        <time>2019-02-12T10:50:47Z</time>
      </trkpt>
      <trkpt lat="45.06656" lon="6.11371">
        <ele>2065.7</ele>
        <time>2019-02-12T10:50:49Z</time>
      </trkpt>
      <trkpt lat="45.06644" lon="6.11369">
        <ele>2062.8</ele>
        <time>2019-02-12T10:50:52Z</time>
      </trkpt>
      <trkpt lat="45.06633" lon="6.11377">
        <ele>2059.6</ele>
        <time>2019-02-12T10:50:55Z</time>
      </trkpt>
      <trkpt lat="45.06621" lon="6.11379">
        <ele>2055.5</ele>
        <time>2019-02-12T10:50:59Z</time>
      </trkpt>
      <trkpt lat="45.06613" lon="6.11369">
        <ele>2051.9</ele>
        <time>2019-02-12T10:51:02Z</time>
      </trkpt>
      <trkpt lat="45.06609" lon="6.11355">
        <ele>2047.5</ele>
        <time>2019-02-12T10:51:06Z</time>
      </trkpt>
      <trkpt lat="45.06605" lon="6.1134">
        <ele>2044.8</ele>
        <time>2019-02-12T10:51:09Z</time>
      </trkpt>
      <trkpt lat="45.066" lon="6.11326">
        <ele>2043.1</ele>
        <time>2019-02-12T10:51:11Z</time>
      </trkpt>
      <trkpt lat="45.06599" lon="6.11313">
        <ele>2041.2</ele>
        <time>2019-02-12T10:51:13Z</time>
      </trkpt>
      <trkpt lat="45.06595" lon="6.113">
        <ele>2025</ele>
        <time>2019-02-12T10:51:58Z</time>
      </trkpt>
      <trkpt lat="45.06585" lon="6.11299">
        <ele>2024.4</ele>
        <time>2019-02-12T10:52:01Z</time>
      </trkpt>
      <trkpt lat="45.06573" lon="6.11291">
        <ele>2023.4</ele>
        <time>2019-02-12T10:52:04Z</time>
      </trkpt>
      <trkpt lat="45.06562" lon="6.11286">
        <ele>2022.5</ele>
        <time>2019-02-12T10:52:06Z</time>
      </trkpt>
      <trkpt lat="45.06552" lon="6.11276">
        <ele>2021.5</ele>
        <time>2019-02-12T10:52:08Z</time>
      </trkpt>
      <trkpt lat="45.06538" lon="6.11265">
        <ele>2019.9</ele>
        <time>2019-02-12T10:52:10Z</time>
      </trkpt>
      <trkpt lat="45.06532" lon="6.11244">
        <ele>2017.7</ele>
        <time>2019-02-12T10:52:12Z</time>
      </trkpt>
      <trkpt lat="45.06532" lon="6.11228">
        <ele>2015.7</ele>
        <time>2019-02-12T10:52:14Z</time>
      </trkpt>
      <trkpt lat="45.06522" lon="6.11219">
        <ele>2012.4</ele>
        <time>2019-02-12T10:52:17Z</time>
      </trkpt>
      <trkpt lat="45.06512" lon="6.11219">
        <ele>2010.4</ele>
        <time>2019-02-12T10:52:19Z</time>
      </trkpt>
      <trkpt lat="45.06503" lon="6.11215">
        <ele>2008.4</ele>
        <time>2019-02-12T10:52:21Z</time>
      </trkpt>
      <trkpt lat="45.06494" lon="6.11216">
        <ele>2006.2</ele>
        <time>2019-02-12T10:52:23Z</time>
      </trkpt>
      <trkpt lat="45.06484" lon="6.11217">
        <ele>2003.9</ele>
        <time>2019-02-12T10:52:25Z</time>
      </trkpt>
      <trkpt lat="45.06476" lon="6.11223">
        <ele>2001.6</ele>
        <time>2019-02-12T10:52:27Z</time>
      </trkpt>
      <trkpt lat="45.06465" lon="6.11227">
        <ele>1998.5</ele>
        <time>2019-02-12T10:52:30Z</time>
      </trkpt>
      <trkpt lat="45.06456" lon="6.11219">
        <ele>1996.6</ele>
        <time>2019-02-12T10:52:32Z</time>
      </trkpt>
      <trkpt lat="45.06447" lon="6.11225">
        <ele>1993.8</ele>
        <time>2019-02-12T10:52:35Z</time>
      </trkpt>
      <trkpt lat="45.06448" lon="6.11211">
        <ele>1979.2</ele>
        <time>2019-02-12T10:53:22Z</time>
      </trkpt>
      <trkpt lat="45.06449" lon="6.11196">
        <ele>1978.9</ele>
        <time>2019-02-12T10:53:28Z</time>
      </trkpt>
      <trkpt lat="45.06447" lon="6.11183">
        <ele>1977.9</ele>
        <time>2019-02-12T10:53:34Z</time>
      </trkpt>
      <trkpt lat="45.06437" lon="6.1118">
        <ele>1977</ele>
        <time>2019-02-12T10:53:37Z</time>
      </trkpt>
      <trkpt lat="45.06427" lon="6.1118">
        <ele>1975.6</ele>
        <time>2019-02-12T10:53:40Z</time>
      </trkpt>
      <trkpt lat="45.06414" lon="6.11176">
        <ele>1973.5</ele>
        <time>2019-02-12T10:53:43Z</time>
      </trkpt>
      <trkpt lat="45.06405" lon="6.11175">
        <ele>1971.9</ele>
        <time>2019-02-12T10:53:45Z</time>
      </trkpt>
      <trkpt lat="45.06393" lon="6.11168">
        <ele>1970.1</ele>
        <time>2019-02-12T10:53:47Z</time>
      </trkpt>
      <trkpt lat="45.06381" lon="6.11163">
        <ele>1968.3</ele>
        <time>2019-02-12T10:53:49Z</time>
      </trkpt>
      <trkpt lat="45.0637" lon="6.11166">
        <ele>1966</ele>
        <time>2019-02-12T10:53:51Z</time>
      </trkpt>
      <trkpt lat="45.06361" lon="6.11159">
        <ele>1963.5</ele>
        <time>2019-02-12T10:53:53Z</time>
      </trkpt>
      <trkpt lat="45.0635" lon="6.11158">
        <ele>1961.1</ele>
        <time>2019-02-12T10:53:55Z</time>
      </trkpt>
      <trkpt lat="45.06338" lon="6.11156">
        <ele>1958.5</ele>
        <time>2019-02-12T10:53:57Z</time>
      </trkpt>
      <trkpt lat="45.06332" lon="6.11164">
        <ele>1955.9</ele>
        <time>2019-02-12T10:53:59Z</time>
      </trkpt>
      <trkpt lat="45.06324" lon="6.11177">
        <ele>1952.3</ele>
        <time>2019-02-12T10:54:02Z</time>
      </trkpt>
      <trkpt lat="45.06312" lon="6.11178">
        <ele>1947.9</ele>
        <time>2019-02-12T10:54:06Z</time>
      </trkpt>
      <trkpt lat="45.06304" lon="6.11182">
        <ele>1943.8</ele>
        <time>2019-02-12T10:54:10Z</time>
      </trkpt>
      <trkpt lat="45.06313" lon="6.11183">
        <ele>1926.6</ele>
        <time>2019-02-12T10:55:09Z</time>
      </trkpt>
      <trkpt lat="45.06302" lon="6.1118">
        <ele>1926.1</ele>
        <time>2019-02-12T10:55:25Z</time>
      </trkpt>
      <trkpt lat="45.06294" lon="6.11187">
        <ele>1925.5</ele>
        <time>2019-02-12T10:55:28Z</time>
      </trkpt>
      <trkpt lat="45.06285" lon="6.11189">
        <ele>1925.1</ele>
        <time>2019-02-12T10:55:30Z</time>
      </trkpt>
      <trkpt lat="45.06276" lon="6.11193">
        <ele>1924.5</ele>
        <time>2019-02-12T10:55:32Z</time>
      </trkpt>
      <trkpt lat="45.06267" lon="6.11202">
        <ele>1923.3</ele>
        <time>2019-02-12T10:55:34Z</time>
      </trkpt>
      <trkpt lat="45.06257" lon="6.11208">
        <ele>1921.6</ele>
        <time>2019-02-12T10:55:36Z</time>
      </trkpt>
      <trkpt lat="45.06246" lon="6.11211">
        <ele>1919.8</ele>
        <time>2019-02-12T10:55:38Z</time>
      </trkpt>
      <trkpt lat="45.06236" lon="6.11218">
        <ele>1917.5</ele>
        <time>2019-02-12T10:55:40Z</time>
      </trkpt>
      <trkpt lat="45.06226" lon="6.11216">
        <ele>1915.2</ele>
        <time>2019-02-12T10:55:42Z</time>
      </trkpt>
      <trkpt lat="45.06213" lon="6.11219">
        <ele>1911.7</ele>
        <time>2019-02-12T10:55:45Z</time>
      </trkpt>
      <trkpt lat="45.06205" lon="6.11226">
        <ele>1909.2</ele>
        <time>2019-02-12T10:55:47Z</time>
      </trkpt>
      <trkpt lat="45.06196" lon="6.11233">
        <ele>1906.9</ele>
        <time>2019-02-12T10:55:49Z</time>
      </trkpt>
      <trkpt lat="45.06186" lon="6.11236">
        <ele>1903.1</ele>
        <time>2019-02-12T10:55:52Z</time>
      </trkpt>
      <trkpt lat="45.06177" lon="6.11228">
        <ele>1884.3</ele>
        <time>2019-02-12T10:56:27Z</time>
      </trkpt>
      <trkpt lat="45.06169" lon="6.11218">
        <ele>1883.3</ele>
        <time>2019-02-12T10:56:32Z</time>
      </trkpt>
      <trkpt lat="45.06157" lon="6.11226">
        <ele>1882.1</ele>
        <time>2019-02-12T10:56:36Z</time>
      </trkpt>
      <trkpt lat="45.0615" lon="6.11234">
        <ele>1880.9</ele>
        <time>2019-02-12T10:56:38Z</time>
      </trkpt>
      <trkpt lat="45.06142" lon="6.11245">
        <ele>1879.7</ele>
        <time>2019-02-12T10:56:40Z</time>
      </trkpt>
      <trkpt lat="45.0613" lon="6.11247">
        <ele>1877.4</ele>
        <time>2019-02-12T10:56:43Z</time>
      </trkpt>
      <trkpt lat="45.06121" lon="6.11252">
        <ele>1875.4</ele>
        <time>2019-02-12T10:56:45Z</time>
      </trkpt>
      <trkpt lat="45.06113" lon="6.11262">
        <ele>1873.2</ele>
        <time>2019-02-12T10:56:47Z</time>
      </trkpt>
      <trkpt lat="45.06104" lon="6.1127">
        <ele>1870.5</ele>
        <time>2019-02-12T10:56:49Z</time>
      </trkpt>
      <trkpt lat="45.06094" lon="6.11273">
        <ele>1867.5</ele>
        <time>2019-02-12T10:56:51Z</time>
      </trkpt>
      <trkpt lat="45.06083" lon="6.11268">
        <ele>1863.1</ele>
        <time>2019-02-12T10:56:54Z</time>
      </trkpt>
      <trkpt lat="45.06079" lon="6.11281">
        <ele>1858.6</ele>
        <time>2019-02-12T10:56:57Z</time>
      </trkpt>
      <trkpt lat="45.0607" lon="6.11286">
        <ele>1854.1</ele>
        <time>2019-02-12T10:57:00Z</time>
      </trkpt>
      <trkpt lat="45.06066" lon="6.11299">
        <ele>1851.1</ele>
        <time>2019-02-12T10:57:02Z</time>
      </trkpt>
      <trkpt lat="45.06065" lon="6.11313">
        <ele>1848</ele>
        <time>2019-02-12T10:57:04Z</time>
      </trkpt>
      <trkpt lat="45.06055" lon="6.11312">
        <ele>1842.3</ele>
        <time>2019-02-12T10:57:08Z</time>
      </trkpt>
      <trkpt lat="45.06052" lon="6.11298">
        <ele>1821.7</ele>
        <time>2019-02-12T10:57:37Z</time>
      </trkpt>
      <trkpt lat="45.06042" lon="6.113">
        <ele>1819.7</ele>
        <time>2019-02-12T10:57:44Z</time>
      </trkpt>
      <trkpt lat="45.06035" lon="6.11309">
        <ele>1818.3</ele>
        <time>2019-02-12T10:57:47Z</time>
      </trkpt>
      <trkpt lat="45.06025" lon="6.1131">
        <ele>1810.4</ele>
        <time>2019-02-12T10:58:07Z</time>
      </trkpt>
      <trkpt lat="45.06018" lon="6.11291">
        <ele>1805</ele>
        <time>2019-02-12T10:59:47Z</time>
      </trkpt>
      <trkpt lat="45.06015" lon="6.11279">
        <ele>1804</ele>
        <time>2019-02-12T10:59:51Z</time>
      </trkpt>
      <trkpt lat="45.06006" lon="6.11263">
        <ele>1804</ele>
        <time>2019-02-12T10:59:58Z</time>
      </trkpt>
      <trkpt lat="45.05994" lon="6.11262">
        <ele>1803</ele>
        <time>2019-02-12T11:00:02Z</time>
      </trkpt>
      <trkpt lat="45.05983" lon="6.11267">
        <ele>1801.4</ele>
        <time>2019-02-12T11:00:05Z</time>
      </trkpt>
      <trkpt lat="45.05983" lon="6.11282">
        <ele>1799.8</ele>
        <time>2019-02-12T11:00:07Z</time>
      </trkpt>
      <trkpt lat="45.05975" lon="6.11272">
        <ele>1791.1</ele>
        <time>2019-02-12T11:00:21Z</time>
      </trkpt>
      <trkpt lat="45.05965" lon="6.11278">
        <ele>1789</ele>
        <time>2019-02-12T11:00:25Z</time>
      </trkpt>
      <trkpt lat="45.05956" lon="6.1127">
        <ele>1786.7</ele>
        <time>2019-02-12T11:00:28Z</time>
      </trkpt>
      <trkpt lat="45.05945" lon="6.11276">
        <ele>1783.2</ele>
        <time>2019-02-12T11:00:32Z</time>
      </trkpt>
      <trkpt lat="45.05937" lon="6.1127">
        <ele>1777.5</ele>
        <time>2019-02-12T11:00:38Z</time>
      </trkpt>
      <trkpt lat="45.05927" lon="6.11262">
        <ele>1762.5</ele>
        <time>2019-02-12T11:02:39Z</time>
      </trkpt>
      <trkpt lat="45.05919" lon="6.11269">
        <ele>1760</ele>
        <time>2019-02-12T11:02:44Z</time>
      </trkpt>
      <trkpt lat="45.0591" lon="6.11266">
        <ele>1757.2</ele>
        <time>2019-02-12T11:02:53Z</time>
      </trkpt>
      <trkpt lat="45.05902" lon="6.11273">
        <ele>1751.6</ele>
        <time>2019-02-12T11:03:04Z</time>
      </trkpt>
      <trkpt lat="45.05893" lon="6.11266">
        <ele>1749.6</ele>
        <time>2019-02-12T11:03:08Z</time>
      </trkpt>
      <trkpt lat="45.05885" lon="6.11274">
        <ele>1746.2</ele>
        <time>2019-02-12T11:03:14Z</time>
      </trkpt>
      <trkpt lat="45.05876" lon="6.11267">
        <ele>1742.1</ele>
        <time>2019-02-12T11:03:20Z</time>
      </trkpt>
      <trkpt lat="45.0587" lon="6.11253">
        <ele>1739.1</ele>
        <time>2019-02-12T11:03:24Z</time>
      </trkpt>
      <trkpt lat="45.0586" lon="6.11252">
        <ele>1736.1</ele>
        <time>2019-02-12T11:03:28Z</time>
      </trkpt>
      <trkpt lat="45.05856" lon="6.11264">
        <ele>1733.5</ele>
        <time>2019-02-12T11:03:31Z</time>
      </trkpt>
      <trkpt lat="45.0585" lon="6.11254">
        <ele>1730.9</ele>
        <time>2019-02-12T11:03:34Z</time>
      </trkpt>
      <trkpt lat="45.05843" lon="6.11266">
        <ele>1727.4</ele>
        <time>2019-02-12T11:03:38Z</time>
      </trkpt>
      <trkpt lat="45.05834" lon="6.11258">
        <ele>1723.8</ele>
        <time>2019-02-12T11:03:42Z</time>
      </trkpt>
      <trkpt lat="45.05825" lon="6.11256">
        <ele>1707</ele>
        <time>2019-02-12T11:04:30Z</time>
      </trkpt>
      <trkpt lat="45.05816" lon="6.11253">
        <ele>1705.6</ele>
        <time>2019-02-12T11:05:32Z</time>
      </trkpt>
      <trkpt lat="45.05816" lon="6.11266">
        <ele>1704.4</ele>
        <time>2019-02-12T11:05:36Z</time>
      </trkpt>
      <trkpt lat="45.05819" lon="6.11282">
        <ele>1703.2</ele>
        <time>2019-02-12T11:05:39Z</time>
      </trkpt>
      <trkpt lat="45.05813" lon="6.11291">
        <ele>1701.4</ele>
        <time>2019-02-12T11:05:43Z</time>
      </trkpt>
      <trkpt lat="45.05799" lon="6.11292">
        <ele>1699.7</ele>
        <time>2019-02-12T11:05:46Z</time>
      </trkpt>
      <trkpt lat="45.05788" lon="6.11281">
        <ele>1698.2</ele>
        <time>2019-02-12T11:05:48Z</time>
      </trkpt>
      <trkpt lat="45.05783" lon="6.1127">
        <ele>1696.2</ele>
        <time>2019-02-12T11:05:50Z</time>
      </trkpt>
      <trkpt lat="45.05778" lon="6.11258">
        <ele>1692.6</ele>
        <time>2019-02-12T11:05:54Z</time>
      </trkpt>
      <trkpt lat="45.05769" lon="6.1125">
        <ele>1685.2</ele>
        <time>2019-02-12T11:06:07Z</time>
      </trkpt>
      <trkpt lat="45.05762" lon="6.11259">
        <ele>1683.8</ele>
        <time>2019-02-12T11:06:10Z</time>
      </trkpt>
      <trkpt lat="45.05761" lon="6.11277">
        <ele>1682.2</ele>
        <time>2019-02-12T11:06:13Z</time>
      </trkpt>
      <trkpt lat="45.05751" lon="6.11287">
        <ele>1680</ele>
        <time>2019-02-12T11:06:16Z</time>
      </trkpt>
      <trkpt lat="45.05742" lon="6.11285">
        <ele>1677.7</ele>
        <time>2019-02-12T11:06:19Z</time>
      </trkpt>
      <trkpt lat="45.05732" lon="6.11289">
        <ele>1675</ele>
        <time>2019-02-12T11:06:22Z</time>
      </trkpt>
      <trkpt lat="45.05721" lon="6.1128">
        <ele>1672.2</ele>
        <time>2019-02-12T11:06:25Z</time>
      </trkpt>
      <trkpt lat="45.05714" lon="6.11269">
        <ele>1670.4</ele>
        <time>2019-02-12T11:06:27Z</time>
      </trkpt>
      <trkpt lat="45.05709" lon="6.11283">
        <ele>1667.1</ele>
        <time>2019-02-12T11:06:30Z</time>
      </trkpt>
      <trkpt lat="45.05697" lon="6.11281">
        <ele>1664</ele>
        <time>2019-02-12T11:06:33Z</time>
      </trkpt>
      <trkpt lat="45.05693" lon="6.11268">
        <ele>1660.6</ele>
        <time>2019-02-12T11:06:36Z</time>
      </trkpt>
      <trkpt lat="45.05689" lon="6.11257">
        <ele>1644.9</ele>
        <time>2019-02-12T11:07:07Z</time>
      </trkpt>
      <trkpt lat="45.05681" lon="6.11245">
        <ele>1644</ele>
        <time>2019-02-12T11:07:11Z</time>
      </trkpt>
      <trkpt lat="45.05676" lon="6.11231">
        <ele>1643.2</ele>
        <time>2019-02-12T11:07:15Z</time>
      </trkpt>
      <trkpt lat="45.0567" lon="6.11244">
        <ele>1641.8</ele>
        <time>2019-02-12T11:07:19Z</time>
      </trkpt>
      <trkpt lat="45.05667" lon="6.11232">
        <ele>1632.1</ele>
        <time>2019-02-12T11:08:40Z</time>
      </trkpt>
      <trkpt lat="45.05664" lon="6.11218">
        <ele>1631.4</ele>
        <time>2019-02-12T11:08:47Z</time>
      </trkpt>
      <trkpt lat="45.05661" lon="6.11204">
        <ele>1630.6</ele>
        <time>2019-02-12T11:08:51Z</time>
      </trkpt>
      <trkpt lat="45.05654" lon="6.11214">
        <ele>1629.4</ele>
        <time>2019-02-12T11:08:55Z</time>
      </trkpt>
      <trkpt lat="45.05646" lon="6.11227">
        <ele>1627.6</ele>
        <time>2019-02-12T11:08:59Z</time>
      </trkpt>
      <trkpt lat="45.05637" lon="6.11235">
        <ele>1624.9</ele>
        <time>2019-02-12T11:09:04Z</time>
      </trkpt>
      <trkpt lat="45.05626" lon="6.11233">
        <ele>1622.1</ele>
        <time>2019-02-12T11:09:08Z</time>
      </trkpt>
      <trkpt lat="45.05621" lon="6.11219">
        <ele>1619.8</ele>
        <time>2019-02-12T11:09:11Z</time>
      </trkpt>
      <trkpt lat="45.05619" lon="6.11202">
        <ele>1617.3</ele>
        <time>2019-02-12T11:09:14Z</time>
      </trkpt>
      <trkpt lat="45.05616" lon="6.11188">
        <ele>1615.2</ele>
        <time>2019-02-12T11:09:17Z</time>
      </trkpt>
      <trkpt lat="45.05609" lon="6.11197">
        <ele>1613.3</ele>
        <time>2019-02-12T11:09:20Z</time>
      </trkpt>
      <trkpt lat="45.05604" lon="6.11208">
        <ele>1610.6</ele>
        <time>2019-02-12T11:09:24Z</time>
      </trkpt>
      <trkpt lat="45.05598" lon="6.11197">
        <ele>1607.8</ele>
        <time>2019-02-12T11:09:28Z</time>
      </trkpt>
      <trkpt lat="45.05595" lon="6.11183">
        <ele>1605.7</ele>
        <time>2019-02-12T11:09:31Z</time>
      </trkpt>
      <trkpt lat="45.05586" lon="6.11175">
        <ele>1602</ele>
        <time>2019-02-12T11:09:37Z</time>
      </trkpt>
      <trkpt lat="45.05576" lon="6.11164">
        <ele>1600</ele>
        <time>2019-02-12T11:09:40Z</time>
      </trkpt>
      <trkpt lat="45.05565" lon="6.11156">
        <ele>1597.6</ele>
        <time>2019-02-12T11:09:43Z</time>
      </trkpt>
      <trkpt lat="45.0555" lon="6.11152">
        <ele>1595.1</ele>
        <time>2019-02-12T11:09:46Z</time>
      </trkpt>
      <trkpt lat="45.05541" lon="6.11158">
        <ele>1593.3</ele>
        <time>2019-02-12T11:09:48Z</time>
      </trkpt>
      <trkpt lat="45.05534" lon="6.1115">
        <ele>1578.9</ele>
        <time>2019-02-12T11:10:16Z</time>
      </trkpt>
      <trkpt lat="45.05527" lon="6.11138">
        <ele>1578.3</ele>
        <time>2019-02-12T11:10:19Z</time>
      </trkpt>
      <trkpt lat="45.05522" lon="6.11125">
        <ele>1577.6</ele>
        <time>2019-02-12T11:10:22Z</time>
      </trkpt>
      <trkpt lat="45.05519" lon="6.11113">
        <ele>1576.8</ele>
        <time>2019-02-12T11:10:25Z</time>
      </trkpt>
      <trkpt lat="45.0551" lon="6.11107">
        <ele>1575.9</ele>
        <time>2019-02-12T11:10:28Z</time>
      </trkpt>
      <trkpt lat="45.05499" lon="6.11108">
        <ele>1574.4</ele>
        <time>2019-02-12T11:10:31Z</time>
      </trkpt>
      <trkpt lat="45.05494" lon="6.11119">
        <ele>1573.1</ele>
        <time>2019-02-12T11:10:33Z</time>
      </trkpt>
      <trkpt lat="45.05487" lon="6.11133">
        <ele>1570.7</ele>
        <time>2019-02-12T11:10:36Z</time>
      </trkpt>
      <trkpt lat="45.05481" lon="6.11144">
        <ele>1566.6</ele>
        <time>2019-02-12T11:10:41Z</time>
      </trkpt>
      <trkpt lat="45.05474" lon="6.11131">
        <ele>1564.4</ele>
        <time>2019-02-12T11:10:44Z</time>
      </trkpt>
      <trkpt lat="45.05463" lon="6.11127">
        <ele>1561.9</ele>
        <time>2019-02-12T11:10:47Z</time>
      </trkpt>
      <trkpt lat="45.0546" lon="6.11112">
        <ele>1559.3</ele>
        <time>2019-02-12T11:10:50Z</time>
      </trkpt>
      <trkpt lat="45.05457" lon="6.111">
        <ele>1557.6</ele>
        <time>2019-02-12T11:10:52Z</time>
      </trkpt>
      <trkpt lat="45.05455" lon="6.11087">
        <ele>1553.2</ele>
        <time>2019-02-12T11:10:58Z</time>
      </trkpt>
      <trkpt lat="45.05447" lon="6.11075">
        <ele>1543.6</ele>
        <time>2019-02-12T11:11:43Z</time>
      </trkpt>
      <trkpt lat="45.05442" lon="6.11088">
        <ele>1542.6</ele>
        <time>2019-02-12T11:11:48Z</time>
      </trkpt>
      <trkpt lat="45.05433" lon="6.11084">
        <ele>1541.1</ele>
        <time>2019-02-12T11:11:52Z</time>
      </trkpt>
      <trkpt lat="45.05428" lon="6.11071">
        <ele>1539.4</ele>
        <time>2019-02-12T11:11:56Z</time>
      </trkpt>
      <trkpt lat="45.05422" lon="6.1108">
        <ele>1537.5</ele>
        <time>2019-02-12T11:12:00Z</time>
      </trkpt>
      <trkpt lat="45.05412" lon="6.1107">
        <ele>1534.8</ele>
        <time>2019-02-12T11:12:04Z</time>
      </trkpt>
      <trkpt lat="45.05403" lon="6.11066">
        <ele>1532.6</ele>
        <time>2019-02-12T11:12:07Z</time>
      </trkpt>
      <trkpt lat="45.05398" lon="6.11077">
        <ele>1527.3</ele>
        <time>2019-02-12T11:12:14Z</time>
      </trkpt>
      <trkpt lat="45.05389" lon="6.1107">
        <ele>1524.4</ele>
        <time>2019-02-12T11:12:19Z</time>
      </trkpt>
      <trkpt lat="45.05385" lon="6.11083">
        <ele>1514.1</ele>
        <time>2019-02-12T11:12:40Z</time>
      </trkpt>
      <trkpt lat="45.05375" lon="6.11079">
        <ele>1511.3</ele>
        <time>2019-02-12T11:12:47Z</time>
      </trkpt>
      <trkpt lat="45.05368" lon="6.11072">
        <ele>1508.1</ele>
        <time>2019-02-12T11:12:54Z</time>
      </trkpt>
      <trkpt lat="45.05364" lon="6.11085">
        <ele>1506</ele>
        <time>2019-02-12T11:12:59Z</time>
      </trkpt>
      <trkpt lat="45.05356" lon="6.11079">
        <ele>1497.1</ele>
        <time>2019-02-12T11:13:23Z</time>
      </trkpt>
      <trkpt lat="45.05352" lon="6.11064">
        <ele>1494.1</ele>
        <time>2019-02-12T11:15:17Z</time>
      </trkpt>
      <trkpt lat="45.05343" lon="6.11055">
        <ele>1493.8</ele>
        <time>2019-02-12T11:15:21Z</time>
      </trkpt>
      <trkpt lat="45.05334" lon="6.11065">
        <ele>1493.3</ele>
        <time>2019-02-12T11:15:25Z</time>
      </trkpt>
      <trkpt lat="45.05324" lon="6.11061">
        <ele>1492.5</ele>
        <time>2019-02-12T11:15:27Z</time>
      </trkpt>
      <trkpt lat="45.05315" lon="6.11056">
        <ele>1491.1</ele>
        <time>2019-02-12T11:15:30Z</time>
      </trkpt>
      <trkpt lat="45.0531" lon="6.11068">
        <ele>1489.9</ele>
        <time>2019-02-12T11:15:32Z</time>
      </trkpt>
      <trkpt lat="45.053" lon="6.11065">
        <ele>1487.6</ele>
        <time>2019-02-12T11:15:35Z</time>
      </trkpt>
      <trkpt lat="45.05291" lon="6.11071">
        <ele>1483.1</ele>
        <time>2019-02-12T11:15:41Z</time>
      </trkpt>
      <trkpt lat="45.05284" lon="6.11063">
        <ele>1480.5</ele>
        <time>2019-02-12T11:15:45Z</time>
      </trkpt>
      <trkpt lat="45.05274" lon="6.11057">
        <ele>1475.2</ele>
        <time>2019-02-12T11:15:55Z</time>
      </trkpt>
      <trkpt lat="45.05264" lon="6.11057">
        <ele>1467.1</ele>
        <time>2019-02-12T11:16:19Z</time>
      </trkpt>
      <trkpt lat="45.05257" lon="6.11046">
        <ele>1466.1</ele>
        <time>2019-02-12T11:16:23Z</time>
      </trkpt>
      <trkpt lat="45.0525" lon="6.11034">
        <ele>1464.7</ele>
        <time>2019-02-12T11:16:29Z</time>
      </trkpt>
      <trkpt lat="45.05241" lon="6.11034">
        <ele>1462.3</ele>
        <time>2019-02-12T11:16:38Z</time>
      </trkpt>
      <trkpt lat="45.05241" lon="6.11049">
        <ele>1461.1</ele>
        <time>2019-02-12T11:16:42Z</time>
      </trkpt>
      <trkpt lat="45.05237" lon="6.11066">
        <ele>1458.6</ele>
        <time>2019-02-12T11:16:46Z</time>
      </trkpt>
      <trkpt lat="45.05231" lon="6.11076">
        <ele>1448</ele>
        <time>2019-02-12T11:17:22Z</time>
      </trkpt>
      <trkpt lat="45.05231" lon="6.11091">
        <ele>1446.5</ele>
        <time>2019-02-12T11:17:49Z</time>
      </trkpt>
      <trkpt lat="45.05235" lon="6.11103">
        <ele>1446.1</ele>
        <time>2019-02-12T11:17:52Z</time>
      </trkpt>
      <trkpt lat="45.05242" lon="6.11113">
        <ele>1445.5</ele>
        <time>2019-02-12T11:17:56Z</time>
      </trkpt>
      <trkpt lat="45.05241" lon="6.11131">
        <ele>1443</ele>
        <time>2019-02-12T11:18:02Z</time>
      </trkpt>
      <trkpt lat="45.05232" lon="6.11136">
        <ele>1438.3</ele>
        <time>2019-02-12T11:18:15Z</time>
      </trkpt>
      <trkpt lat="45.05222" lon="6.11135">
        <ele>1432.7</ele>
        <time>2019-02-12T11:18:27Z</time>
      </trkpt>
      <trkpt lat="45.05211" lon="6.11135">
        <ele>1430.4</ele>
        <time>2019-02-12T11:18:32Z</time>
      </trkpt>
      <trkpt lat="45.05209" lon="6.11149">
        <ele>1428.3</ele>
        <time>2019-02-12T11:18:36Z</time>
      </trkpt>
      <trkpt lat="45.05203" lon="6.11161">
        <ele>1416.1</ele>
        <time>2019-02-12T11:19:22Z</time>
      </trkpt>
      <trkpt lat="45.05205" lon="6.11176">
        <ele>1415.1</ele>
        <time>2019-02-12T11:19:27Z</time>
      </trkpt>
      <trkpt lat="45.0521" lon="6.11191">
        <ele>1413.9</ele>
        <time>2019-02-12T11:19:31Z</time>
      </trkpt>
      <trkpt lat="45.05215" lon="6.11203">
        <ele>1412.4</ele>
        <time>2019-02-12T11:19:34Z</time>
      </trkpt>
      <trkpt lat="45.05207" lon="6.11209">
        <ele>1408.8</ele>
        <time>2019-02-12T11:19:41Z</time>
      </trkpt>
      <trkpt lat="45.05199" lon="6.11216">
        <ele>1404.9</ele>
        <time>2019-02-12T11:19:52Z</time>
      </trkpt>
      <trkpt lat="45.05192" lon="6.11207">
        <ele>1403.3</ele>
        <time>2019-02-12T11:19:57Z</time>
      </trkpt>
      <trkpt lat="45.05183" lon="6.11208">
        <ele>1398.5</ele>
        <time>2019-02-12T11:20:08Z</time>
      </trkpt>
      <trkpt lat="45.05173" lon="6.11208">
        <ele>1396.8</ele>
        <time>2019-02-12T11:20:13Z</time>
      </trkpt>
      <trkpt lat="45.05164" lon="6.11211">
        <ele>1387.2</ele>
        <time>2019-02-12T11:21:15Z</time>
      </trkpt>
      <trkpt lat="45.05163" lon="6.11225">
        <ele>1386</ele>
        <time>2019-02-12T11:21:44Z</time>
      </trkpt>
      <trkpt lat="45.05157" lon="6.1124">
        <ele>1384</ele>
        <time>2019-02-12T11:21:56Z</time>
      </trkpt>
      <trkpt lat="45.05146" lon="6.11239">
        <ele>1381.7</ele>
        <time>2019-02-12T11:22:04Z</time>
      </trkpt>
      <trkpt lat="45.05136" lon="6.11237">
        <ele>1376.4</ele>
        <time>2019-02-12T11:22:14Z</time>
      </trkpt>
      <trkpt lat="45.05124" lon="6.11241">
        <ele>1375.1</ele>
        <time>2019-02-12T11:22:17Z</time>
      </trkpt>
      <trkpt lat="45.05113" lon="6.11244">
        <ele>1370.9</ele>
        <time>2019-02-12T11:22:24Z</time>
      </trkpt>
      <trkpt lat="45.05109" lon="6.11256">
        <ele>1364.3</ele>
        <time>2019-02-12T11:22:40Z</time>
      </trkpt>
      <trkpt lat="45.05099" lon="6.11258">
        <ele>1363.4</ele>
        <time>2019-02-12T11:22:43Z</time>
      </trkpt>
      <trkpt lat="45.0509" lon="6.11268">
        <ele>1362.1</ele>
        <time>2019-02-12T11:22:46Z</time>
      </trkpt>
      <trkpt lat="45.05082" lon="6.11275">
        <ele>1361.2</ele>
        <time>2019-02-12T11:22:48Z</time>
      </trkpt>
      <trkpt lat="45.05073" lon="6.11281">
        <ele>1360.3</ele>
        <time>2019-02-12T11:22:50Z</time>
      </trkpt>
      <trkpt lat="45.05062" lon="6.11282">
        <ele>1358.9</ele>
        <time>2019-02-12T11:22:53Z</time>
      </trkpt>
      <trkpt lat="45.05062" lon="6.11295">
        <ele>1355</ele>
        <time>2019-02-12T11:23:03Z</time>
      </trkpt>
      <trkpt lat="45.05058" lon="6.11309">
        <ele>1353.2</ele>
        <time>2019-02-12T11:23:10Z</time>
      </trkpt>
      <trkpt lat="45.05049" lon="6.11306">
        <ele>1350.6</ele>
        <time>2019-02-12T11:23:29Z</time>
      </trkpt>
      <trkpt lat="45.0504" lon="6.1131">
        <ele>1349.9</ele>
        <time>2019-02-12T11:23:44Z</time>
      </trkpt>
      <trkpt lat="45.05032" lon="6.11317">
        <ele>1349.7</ele>
        <time>2019-02-12T11:24:05Z</time>
      </trkpt>
      <trkpt lat="45.05024" lon="6.1131">
        <ele>1349.6</ele>
        <time>2019-02-12T11:26:55Z</time>
      </trkpt>
      <trkpt lat="45.0502" lon="6.11299">
        <ele>1349.9</ele>
        <time>2019-02-12T11:27:09Z</time>
      </trkpt>
      <trkpt lat="45.05011" lon="6.11296">
        <ele>1349.7</ele>
        <time>2019-02-12T11:27:22Z</time>
      </trkpt>
      <trkpt lat="45.05003" lon="6.11305">
        <ele>1349.2</ele>
        <time>2019-02-12T11:27:34Z</time>
      </trkpt>
      <trkpt lat="45.04994" lon="6.11309">
        <ele>1348.8</ele>
        <time>2019-02-12T11:27:43Z</time>
      </trkpt>
      <trkpt lat="45.04985" lon="6.11309">
        <ele>1347.5</ele>
        <time>2019-02-12T11:27:53Z</time>
      </trkpt>
      <trkpt lat="45.04974" lon="6.11307">
        <ele>1346</ele>
        <time>2019-02-12T11:28:02Z</time>
      </trkpt>
      <trkpt lat="45.04966" lon="6.11301">
        <ele>1345.4</ele>
        <time>2019-02-12T11:28:11Z</time>
      </trkpt>
      <trkpt lat="45.04957" lon="6.11295">
        <ele>1344.5</ele>
        <time>2019-02-12T11:28:20Z</time>
      </trkpt>
      <trkpt lat="45.04948" lon="6.11289">
        <ele>1343.4</ele>
        <time>2019-02-12T11:28:29Z</time>
      </trkpt>
      <trkpt lat="45.0494" lon="6.11283">
        <ele>1342.6</ele>
        <time>2019-02-12T11:28:39Z</time>
      </trkpt>
      <trkpt lat="45.0493" lon="6.11285">
        <ele>1341.5</ele>
        <time>2019-02-12T11:28:48Z</time>
      </trkpt>
      <trkpt lat="45.04922" lon="6.11293">
        <ele>1339.7</ele>
        <time>2019-02-12T11:29:05Z</time>
      </trkpt>
    </trkseg>
  </trk>
</gpx>